<?xml version="1.0" encoding="UTF-8" standalone="no" ?>
<gpx xmlns="http://www.topografix.com/GPX/1/1" xmlns:xsi="http://www.w3.org/2001/XMLSchema-instance" xsi:schemaLocation="http://www.topografix.com/GPX/1/1 http://www.topografix.com/GPX/1/1/gpx.xsd" version="1.1" creator="VisuGPX - https://www.visugpx.com">
  <metadata>
    <name>Autour de Maurecourt MA-Rando-2020-07-03</name>
  </metadata>
  <trk>
    <name><![CDATA[MA-Rando-2020-07-03-195914]]></name>
    <trkseg>
      <trkpt lat="48.98876" lon="2.07524">
        <ele>26</ele>
        <time>2020-07-03T17:23:24Z</time>
      </trkpt>
      <trkpt lat="48.98875" lon="2.07509">
        <ele>26</ele>
        <time>2020-07-03T17:23:34Z</time>
      </trkpt>
      <trkpt lat="48.98869" lon="2.07494">
        <ele>26</ele>
        <time>2020-07-03T17:23:43Z</time>
      </trkpt>
      <trkpt lat="48.98859" lon="2.07499">
        <ele>26</ele>
        <time>2020-07-03T17:23:54Z</time>
      </trkpt>
      <trkpt lat="48.98848" lon="2.07502">
        <ele>25</ele>
        <time>2020-07-03T17:24:01Z</time>
      </trkpt>
      <trkpt lat="48.98839" lon="2.0751">
        <ele>25</ele>
        <time>2020-07-03T17:24:11Z</time>
      </trkpt>
      <trkpt lat="48.98829" lon="2.07516">
        <ele>24</ele>
        <time>2020-07-03T17:24:19Z</time>
      </trkpt>
      <trkpt lat="48.98819" lon="2.07516">
        <ele>24</ele>
        <time>2020-07-03T17:24:26Z</time>
      </trkpt>
      <trkpt lat="48.98809" lon="2.07516">
        <ele>23</ele>
        <time>2020-07-03T17:24:37Z</time>
      </trkpt>
      <trkpt lat="48.98799" lon="2.07516">
        <ele>23</ele>
        <time>2020-07-03T17:24:48Z</time>
      </trkpt>
      <trkpt lat="48.98793" lon="2.075">
        <ele>23</ele>
        <time>2020-07-03T17:24:52Z</time>
      </trkpt>
      <trkpt lat="48.98795" lon="2.07484">
        <ele>24</ele>
        <time>2020-07-03T17:24:56Z</time>
      </trkpt>
      <trkpt lat="48.98801" lon="2.07473">
        <ele>24</ele>
        <time>2020-07-03T17:25:03Z</time>
      </trkpt>
      <trkpt lat="48.98805" lon="2.0746">
        <ele>24</ele>
        <time>2020-07-03T17:25:11Z</time>
      </trkpt>
      <trkpt lat="48.98813" lon="2.07452">
        <ele>24</ele>
        <time>2020-07-03T17:25:20Z</time>
      </trkpt>
      <trkpt lat="48.98817" lon="2.07438">
        <ele>24</ele>
        <time>2020-07-03T17:25:28Z</time>
      </trkpt>
      <trkpt lat="48.98814" lon="2.07423">
        <ele>24</ele>
        <time>2020-07-03T17:25:34Z</time>
      </trkpt>
      <trkpt lat="48.9881" lon="2.07408">
        <ele>23</ele>
        <time>2020-07-03T17:25:39Z</time>
      </trkpt>
      <trkpt lat="48.98816" lon="2.07396">
        <ele>23</ele>
        <time>2020-07-03T17:25:47Z</time>
      </trkpt>
      <trkpt lat="48.98827" lon="2.07389">
        <ele>23</ele>
        <time>2020-07-03T17:25:54Z</time>
      </trkpt>
      <trkpt lat="48.98834" lon="2.07379">
        <ele>24</ele>
        <time>2020-07-03T17:26:02Z</time>
      </trkpt>
      <trkpt lat="48.98839" lon="2.07365">
        <ele>24</ele>
        <time>2020-07-03T17:26:10Z</time>
      </trkpt>
      <trkpt lat="48.98846" lon="2.07352">
        <ele>24</ele>
        <time>2020-07-03T17:26:19Z</time>
      </trkpt>
      <trkpt lat="48.9885" lon="2.07337">
        <ele>24</ele>
        <time>2020-07-03T17:26:27Z</time>
      </trkpt>
      <trkpt lat="48.98856" lon="2.07323">
        <ele>24</ele>
        <time>2020-07-03T17:26:35Z</time>
      </trkpt>
      <trkpt lat="48.98862" lon="2.07312">
        <ele>23</ele>
        <time>2020-07-03T17:26:41Z</time>
      </trkpt>
      <trkpt lat="48.98868" lon="2.07298">
        <ele>23</ele>
        <time>2020-07-03T17:26:51Z</time>
      </trkpt>
      <trkpt lat="48.98871" lon="2.07284">
        <ele>23</ele>
        <time>2020-07-03T17:26:59Z</time>
      </trkpt>
      <trkpt lat="48.98875" lon="2.0727">
        <ele>23</ele>
        <time>2020-07-03T17:27:07Z</time>
      </trkpt>
      <trkpt lat="48.9888" lon="2.07257">
        <ele>23</ele>
        <time>2020-07-03T17:27:15Z</time>
      </trkpt>
      <trkpt lat="48.98884" lon="2.07243">
        <ele>22</ele>
        <time>2020-07-03T17:27:23Z</time>
      </trkpt>
      <trkpt lat="48.98889" lon="2.0723">
        <ele>21</ele>
        <time>2020-07-03T17:27:32Z</time>
      </trkpt>
      <trkpt lat="48.98892" lon="2.07218">
        <ele>21</ele>
        <time>2020-07-03T17:27:40Z</time>
      </trkpt>
      <trkpt lat="48.98895" lon="2.07204">
        <ele>21</ele>
        <time>2020-07-03T17:27:48Z</time>
      </trkpt>
      <trkpt lat="48.98901" lon="2.07191">
        <ele>21</ele>
        <time>2020-07-03T17:27:56Z</time>
      </trkpt>
      <trkpt lat="48.98906" lon="2.07178">
        <ele>20</ele>
        <time>2020-07-03T17:28:03Z</time>
      </trkpt>
      <trkpt lat="48.9891" lon="2.07164">
        <ele>19</ele>
        <time>2020-07-03T17:28:09Z</time>
      </trkpt>
      <trkpt lat="48.98917" lon="2.07153">
        <ele>19</ele>
        <time>2020-07-03T17:28:15Z</time>
      </trkpt>
      <trkpt lat="48.98924" lon="2.07142">
        <ele>20</ele>
        <time>2020-07-03T17:28:22Z</time>
      </trkpt>
      <trkpt lat="48.9893" lon="2.07128">
        <ele>20</ele>
        <time>2020-07-03T17:28:31Z</time>
      </trkpt>
      <trkpt lat="48.98932" lon="2.07112">
        <ele>20</ele>
        <time>2020-07-03T17:28:39Z</time>
      </trkpt>
      <trkpt lat="48.98935" lon="2.07098">
        <ele>20</ele>
        <time>2020-07-03T17:28:48Z</time>
      </trkpt>
      <trkpt lat="48.98943" lon="2.07086">
        <ele>20</ele>
        <time>2020-07-03T17:28:55Z</time>
      </trkpt>
      <trkpt lat="48.98951" lon="2.07075">
        <ele>22</ele>
        <time>2020-07-03T17:29:02Z</time>
      </trkpt>
      <trkpt lat="48.98956" lon="2.07062">
        <ele>22</ele>
        <time>2020-07-03T17:29:10Z</time>
      </trkpt>
      <trkpt lat="48.98952" lon="2.07075">
        <ele>22</ele>
        <time>2020-07-03T17:29:21Z</time>
      </trkpt>
      <trkpt lat="48.98946" lon="2.07087">
        <ele>20</ele>
        <time>2020-07-03T17:29:32Z</time>
      </trkpt>
      <trkpt lat="48.98948" lon="2.07102">
        <ele>20</ele>
        <time>2020-07-03T17:29:42Z</time>
      </trkpt>
      <trkpt lat="48.98952" lon="2.07114">
        <ele>20</ele>
        <time>2020-07-03T17:29:51Z</time>
      </trkpt>
      <trkpt lat="48.98961" lon="2.0712">
        <ele>20</ele>
        <time>2020-07-03T17:29:58Z</time>
      </trkpt>
      <trkpt lat="48.98973" lon="2.07125">
        <ele>20</ele>
        <time>2020-07-03T17:30:04Z</time>
      </trkpt>
      <trkpt lat="48.98984" lon="2.07132">
        <ele>20</ele>
        <time>2020-07-03T17:30:12Z</time>
      </trkpt>
      <trkpt lat="48.98994" lon="2.07137">
        <ele>20</ele>
        <time>2020-07-03T17:30:19Z</time>
      </trkpt>
      <trkpt lat="48.99005" lon="2.07139">
        <ele>20</ele>
        <time>2020-07-03T17:30:26Z</time>
      </trkpt>
      <trkpt lat="48.99016" lon="2.07144">
        <ele>20</ele>
        <time>2020-07-03T17:30:36Z</time>
      </trkpt>
      <trkpt lat="48.99025" lon="2.07145">
        <ele>21</ele>
        <time>2020-07-03T17:30:42Z</time>
      </trkpt>
      <trkpt lat="48.99035" lon="2.07148">
        <ele>21</ele>
        <time>2020-07-03T17:30:48Z</time>
      </trkpt>
      <trkpt lat="48.99045" lon="2.0715">
        <ele>21</ele>
        <time>2020-07-03T17:30:55Z</time>
      </trkpt>
      <trkpt lat="48.99056" lon="2.07153">
        <ele>21</ele>
        <time>2020-07-03T17:31:02Z</time>
      </trkpt>
      <trkpt lat="48.99066" lon="2.07153">
        <ele>21</ele>
        <time>2020-07-03T17:31:09Z</time>
      </trkpt>
      <trkpt lat="48.99076" lon="2.07156">
        <ele>21</ele>
        <time>2020-07-03T17:31:17Z</time>
      </trkpt>
      <trkpt lat="48.99086" lon="2.07159">
        <ele>22</ele>
        <time>2020-07-03T17:31:26Z</time>
      </trkpt>
      <trkpt lat="48.99097" lon="2.07162">
        <ele>22</ele>
        <time>2020-07-03T17:31:32Z</time>
      </trkpt>
      <trkpt lat="48.99107" lon="2.07164">
        <ele>22</ele>
        <time>2020-07-03T17:31:39Z</time>
      </trkpt>
      <trkpt lat="48.99118" lon="2.07164">
        <ele>22</ele>
        <time>2020-07-03T17:31:46Z</time>
      </trkpt>
      <trkpt lat="48.99127" lon="2.07167">
        <ele>22</ele>
        <time>2020-07-03T17:31:56Z</time>
      </trkpt>
      <trkpt lat="48.99138" lon="2.07167">
        <ele>21</ele>
        <time>2020-07-03T17:32:03Z</time>
      </trkpt>
      <trkpt lat="48.99149" lon="2.07165">
        <ele>22</ele>
        <time>2020-07-03T17:32:11Z</time>
      </trkpt>
      <trkpt lat="48.99159" lon="2.07159">
        <ele>22</ele>
        <time>2020-07-03T17:32:18Z</time>
      </trkpt>
      <trkpt lat="48.9917" lon="2.07154">
        <ele>22</ele>
        <time>2020-07-03T17:32:27Z</time>
      </trkpt>
      <trkpt lat="48.99181" lon="2.07153">
        <ele>22</ele>
        <time>2020-07-03T17:32:34Z</time>
      </trkpt>
      <trkpt lat="48.99192" lon="2.07155">
        <ele>22</ele>
        <time>2020-07-03T17:32:43Z</time>
      </trkpt>
      <trkpt lat="48.99201" lon="2.07159">
        <ele>22</ele>
        <time>2020-07-03T17:32:52Z</time>
      </trkpt>
      <trkpt lat="48.99212" lon="2.07158">
        <ele>22</ele>
        <time>2020-07-03T17:33:01Z</time>
      </trkpt>
      <trkpt lat="48.99221" lon="2.07157">
        <ele>21</ele>
        <time>2020-07-03T17:33:06Z</time>
      </trkpt>
      <trkpt lat="48.99232" lon="2.07154">
        <ele>21</ele>
        <time>2020-07-03T17:33:13Z</time>
      </trkpt>
      <trkpt lat="48.99241" lon="2.07153">
        <ele>21</ele>
        <time>2020-07-03T17:33:19Z</time>
      </trkpt>
      <trkpt lat="48.99251" lon="2.07152">
        <ele>20</ele>
        <time>2020-07-03T17:33:25Z</time>
      </trkpt>
      <trkpt lat="48.99261" lon="2.07151">
        <ele>20</ele>
        <time>2020-07-03T17:33:32Z</time>
      </trkpt>
      <trkpt lat="48.99272" lon="2.07148">
        <ele>20</ele>
        <time>2020-07-03T17:33:40Z</time>
      </trkpt>
      <trkpt lat="48.99283" lon="2.07144">
        <ele>20</ele>
        <time>2020-07-03T17:33:48Z</time>
      </trkpt>
      <trkpt lat="48.99293" lon="2.07139">
        <ele>21</ele>
        <time>2020-07-03T17:33:56Z</time>
      </trkpt>
      <trkpt lat="48.99304" lon="2.07134">
        <ele>21</ele>
        <time>2020-07-03T17:34:04Z</time>
      </trkpt>
      <trkpt lat="48.99314" lon="2.07128">
        <ele>21</ele>
        <time>2020-07-03T17:34:11Z</time>
      </trkpt>
      <trkpt lat="48.99323" lon="2.07121">
        <ele>21</ele>
        <time>2020-07-03T17:34:18Z</time>
      </trkpt>
      <trkpt lat="48.99332" lon="2.07114">
        <ele>21</ele>
        <time>2020-07-03T17:34:24Z</time>
      </trkpt>
      <trkpt lat="48.99341" lon="2.07109">
        <ele>21</ele>
        <time>2020-07-03T17:34:31Z</time>
      </trkpt>
      <trkpt lat="48.99351" lon="2.07104">
        <ele>21</ele>
        <time>2020-07-03T17:34:38Z</time>
      </trkpt>
      <trkpt lat="48.99361" lon="2.071">
        <ele>21</ele>
        <time>2020-07-03T17:34:45Z</time>
      </trkpt>
      <trkpt lat="48.9937" lon="2.07094">
        <ele>21</ele>
        <time>2020-07-03T17:34:52Z</time>
      </trkpt>
      <trkpt lat="48.9938" lon="2.07089">
        <ele>21</ele>
        <time>2020-07-03T17:35:00Z</time>
      </trkpt>
      <trkpt lat="48.99391" lon="2.07085">
        <ele>21</ele>
        <time>2020-07-03T17:35:08Z</time>
      </trkpt>
      <trkpt lat="48.99401" lon="2.07083">
        <ele>22</ele>
        <time>2020-07-03T17:35:15Z</time>
      </trkpt>
      <trkpt lat="48.99412" lon="2.07081">
        <ele>21</ele>
        <time>2020-07-03T17:35:21Z</time>
      </trkpt>
      <trkpt lat="48.99421" lon="2.0708">
        <ele>21</ele>
        <time>2020-07-03T17:35:27Z</time>
      </trkpt>
      <trkpt lat="48.99431" lon="2.07076">
        <ele>21</ele>
        <time>2020-07-03T17:35:36Z</time>
      </trkpt>
      <trkpt lat="48.99442" lon="2.07073">
        <ele>21</ele>
        <time>2020-07-03T17:35:42Z</time>
      </trkpt>
      <trkpt lat="48.99452" lon="2.07071">
        <ele>21</ele>
        <time>2020-07-03T17:35:48Z</time>
      </trkpt>
      <trkpt lat="48.99461" lon="2.0707">
        <ele>21</ele>
        <time>2020-07-03T17:35:56Z</time>
      </trkpt>
      <trkpt lat="48.99471" lon="2.07068">
        <ele>21</ele>
        <time>2020-07-03T17:36:02Z</time>
      </trkpt>
      <trkpt lat="48.9948" lon="2.07066">
        <ele>20</ele>
        <time>2020-07-03T17:36:11Z</time>
      </trkpt>
      <trkpt lat="48.99491" lon="2.07067">
        <ele>20</ele>
        <time>2020-07-03T17:36:19Z</time>
      </trkpt>
      <trkpt lat="48.99502" lon="2.07069">
        <ele>20</ele>
        <time>2020-07-03T17:36:27Z</time>
      </trkpt>
      <trkpt lat="48.99512" lon="2.07071">
        <ele>20</ele>
        <time>2020-07-03T17:36:33Z</time>
      </trkpt>
      <trkpt lat="48.99522" lon="2.07067">
        <ele>20</ele>
        <time>2020-07-03T17:36:38Z</time>
      </trkpt>
      <trkpt lat="48.99533" lon="2.07066">
        <ele>20</ele>
        <time>2020-07-03T17:36:44Z</time>
      </trkpt>
      <trkpt lat="48.99543" lon="2.07067">
        <ele>20</ele>
        <time>2020-07-03T17:36:52Z</time>
      </trkpt>
      <trkpt lat="48.99555" lon="2.07063">
        <ele>20</ele>
        <time>2020-07-03T17:37:00Z</time>
      </trkpt>
      <trkpt lat="48.99565" lon="2.07064">
        <ele>20</ele>
        <time>2020-07-03T17:37:06Z</time>
      </trkpt>
      <trkpt lat="48.99575" lon="2.07065">
        <ele>20</ele>
        <time>2020-07-03T17:37:14Z</time>
      </trkpt>
      <trkpt lat="48.99585" lon="2.07066">
        <ele>20</ele>
        <time>2020-07-03T17:37:20Z</time>
      </trkpt>
      <trkpt lat="48.99594" lon="2.07069">
        <ele>20</ele>
        <time>2020-07-03T17:37:27Z</time>
      </trkpt>
      <trkpt lat="48.99604" lon="2.07068">
        <ele>20</ele>
        <time>2020-07-03T17:37:34Z</time>
      </trkpt>
      <trkpt lat="48.99615" lon="2.07069">
        <ele>20</ele>
        <time>2020-07-03T17:37:41Z</time>
      </trkpt>
      <trkpt lat="48.99625" lon="2.07073">
        <ele>20</ele>
        <time>2020-07-03T17:37:47Z</time>
      </trkpt>
      <trkpt lat="48.99633" lon="2.07081">
        <ele>20</ele>
        <time>2020-07-03T17:37:54Z</time>
      </trkpt>
      <trkpt lat="48.9964" lon="2.0709">
        <ele>19</ele>
        <time>2020-07-03T17:38:01Z</time>
      </trkpt>
      <trkpt lat="48.9965" lon="2.07095">
        <ele>19</ele>
        <time>2020-07-03T17:38:09Z</time>
      </trkpt>
      <trkpt lat="48.9966" lon="2.07101">
        <ele>19</ele>
        <time>2020-07-03T17:38:17Z</time>
      </trkpt>
      <trkpt lat="48.99669" lon="2.07105">
        <ele>19</ele>
        <time>2020-07-03T17:38:23Z</time>
      </trkpt>
      <trkpt lat="48.99679" lon="2.07111">
        <ele>19</ele>
        <time>2020-07-03T17:38:31Z</time>
      </trkpt>
      <trkpt lat="48.99688" lon="2.07114">
        <ele>19</ele>
        <time>2020-07-03T17:38:37Z</time>
      </trkpt>
      <trkpt lat="48.99698" lon="2.07117">
        <ele>19</ele>
        <time>2020-07-03T17:38:44Z</time>
      </trkpt>
      <trkpt lat="48.99706" lon="2.07122">
        <ele>19</ele>
        <time>2020-07-03T17:38:54Z</time>
      </trkpt>
      <trkpt lat="48.99716" lon="2.07127">
        <ele>20</ele>
        <time>2020-07-03T17:39:02Z</time>
      </trkpt>
      <trkpt lat="48.99727" lon="2.07127">
        <ele>20</ele>
        <time>2020-07-03T17:39:11Z</time>
      </trkpt>
      <trkpt lat="48.99737" lon="2.07128">
        <ele>20</ele>
        <time>2020-07-03T17:39:17Z</time>
      </trkpt>
      <trkpt lat="48.99746" lon="2.07131">
        <ele>20</ele>
        <time>2020-07-03T17:39:23Z</time>
      </trkpt>
      <trkpt lat="48.99757" lon="2.07133">
        <ele>20</ele>
        <time>2020-07-03T17:39:30Z</time>
      </trkpt>
      <trkpt lat="48.99768" lon="2.07134">
        <ele>20</ele>
        <time>2020-07-03T17:39:37Z</time>
      </trkpt>
      <trkpt lat="48.99779" lon="2.07134">
        <ele>20</ele>
        <time>2020-07-03T17:39:45Z</time>
      </trkpt>
      <trkpt lat="48.99788" lon="2.07139">
        <ele>20</ele>
        <time>2020-07-03T17:39:55Z</time>
      </trkpt>
      <trkpt lat="48.99799" lon="2.07145">
        <ele>20</ele>
        <time>2020-07-03T17:40:01Z</time>
      </trkpt>
      <trkpt lat="48.99809" lon="2.07149">
        <ele>20</ele>
        <time>2020-07-03T17:40:07Z</time>
      </trkpt>
      <trkpt lat="48.9982" lon="2.07153">
        <ele>20</ele>
        <time>2020-07-03T17:40:15Z</time>
      </trkpt>
      <trkpt lat="48.9983" lon="2.07154">
        <ele>20</ele>
        <time>2020-07-03T17:40:23Z</time>
      </trkpt>
      <trkpt lat="48.99839" lon="2.07154">
        <ele>20</ele>
        <time>2020-07-03T17:40:31Z</time>
      </trkpt>
      <trkpt lat="48.99849" lon="2.07152">
        <ele>20</ele>
        <time>2020-07-03T17:40:37Z</time>
      </trkpt>
      <trkpt lat="48.99859" lon="2.07148">
        <ele>21</ele>
        <time>2020-07-03T17:40:45Z</time>
      </trkpt>
      <trkpt lat="48.99869" lon="2.07142">
        <ele>21</ele>
        <time>2020-07-03T17:40:54Z</time>
      </trkpt>
      <trkpt lat="48.99876" lon="2.07132">
        <ele>21</ele>
        <time>2020-07-03T17:41:02Z</time>
      </trkpt>
      <trkpt lat="48.99884" lon="2.07121">
        <ele>21</ele>
        <time>2020-07-03T17:41:09Z</time>
      </trkpt>
      <trkpt lat="48.99895" lon="2.07112">
        <ele>21</ele>
        <time>2020-07-03T17:41:17Z</time>
      </trkpt>
      <trkpt lat="48.99906" lon="2.0711">
        <ele>21</ele>
        <time>2020-07-03T17:41:25Z</time>
      </trkpt>
      <trkpt lat="48.99916" lon="2.07113">
        <ele>21</ele>
        <time>2020-07-03T17:41:32Z</time>
      </trkpt>
      <trkpt lat="48.99927" lon="2.07113">
        <ele>22</ele>
        <time>2020-07-03T17:41:39Z</time>
      </trkpt>
      <trkpt lat="48.99937" lon="2.07109">
        <ele>22</ele>
        <time>2020-07-03T17:41:48Z</time>
      </trkpt>
      <trkpt lat="48.99949" lon="2.07105">
        <ele>22</ele>
        <time>2020-07-03T17:41:55Z</time>
      </trkpt>
      <trkpt lat="48.99957" lon="2.07098">
        <ele>22</ele>
        <time>2020-07-03T17:42:02Z</time>
      </trkpt>
      <trkpt lat="48.99967" lon="2.07088">
        <ele>22</ele>
        <time>2020-07-03T17:42:12Z</time>
      </trkpt>
      <trkpt lat="48.99975" lon="2.0708">
        <ele>23</ele>
        <time>2020-07-03T17:42:19Z</time>
      </trkpt>
      <trkpt lat="48.99984" lon="2.07073">
        <ele>23</ele>
        <time>2020-07-03T17:42:28Z</time>
      </trkpt>
      <trkpt lat="48.99995" lon="2.07075">
        <ele>23</ele>
        <time>2020-07-03T17:42:36Z</time>
      </trkpt>
      <trkpt lat="49.00006" lon="2.0708">
        <ele>23</ele>
        <time>2020-07-03T17:42:44Z</time>
      </trkpt>
      <trkpt lat="49.00013" lon="2.07087">
        <ele>23</ele>
        <time>2020-07-03T17:42:50Z</time>
      </trkpt>
      <trkpt lat="49.00022" lon="2.07097">
        <ele>23</ele>
        <time>2020-07-03T17:42:58Z</time>
      </trkpt>
      <trkpt lat="49.00032" lon="2.07107">
        <ele>22</ele>
        <time>2020-07-03T17:43:06Z</time>
      </trkpt>
      <trkpt lat="49.00042" lon="2.07111">
        <ele>22</ele>
        <time>2020-07-03T17:43:14Z</time>
      </trkpt>
      <trkpt lat="49.00052" lon="2.07113">
        <ele>22</ele>
        <time>2020-07-03T17:43:20Z</time>
      </trkpt>
      <trkpt lat="49.00062" lon="2.07109">
        <ele>23</ele>
        <time>2020-07-03T17:43:29Z</time>
      </trkpt>
      <trkpt lat="49.00071" lon="2.07103">
        <ele>23</ele>
        <time>2020-07-03T17:43:36Z</time>
      </trkpt>
      <trkpt lat="49.0008" lon="2.07103">
        <ele>23</ele>
        <time>2020-07-03T17:44:01Z</time>
      </trkpt>
      <trkpt lat="49.0009" lon="2.071">
        <ele>23</ele>
        <time>2020-07-03T17:44:17Z</time>
      </trkpt>
      <trkpt lat="49.00097" lon="2.07081">
        <ele>24</ele>
        <time>2020-07-03T17:44:33Z</time>
      </trkpt>
      <trkpt lat="49.00097" lon="2.07066">
        <ele>24</ele>
        <time>2020-07-03T17:44:44Z</time>
      </trkpt>
      <trkpt lat="49.00095" lon="2.07051">
        <ele>23</ele>
        <time>2020-07-03T17:44:51Z</time>
      </trkpt>
      <trkpt lat="49.00093" lon="2.07035">
        <ele>23</ele>
        <time>2020-07-03T17:44:58Z</time>
      </trkpt>
      <trkpt lat="49.0009" lon="2.0702">
        <ele>23</ele>
        <time>2020-07-03T17:45:06Z</time>
      </trkpt>
      <trkpt lat="49.00086" lon="2.07007">
        <ele>23</ele>
        <time>2020-07-03T17:45:12Z</time>
      </trkpt>
      <trkpt lat="49.00086" lon="2.0699">
        <ele>23</ele>
        <time>2020-07-03T17:45:23Z</time>
      </trkpt>
      <trkpt lat="49.00084" lon="2.06974">
        <ele>23</ele>
        <time>2020-07-03T17:45:31Z</time>
      </trkpt>
      <trkpt lat="49.00081" lon="2.06958">
        <ele>22</ele>
        <time>2020-07-03T17:45:39Z</time>
      </trkpt>
      <trkpt lat="49.00078" lon="2.06943">
        <ele>22</ele>
        <time>2020-07-03T17:45:47Z</time>
      </trkpt>
      <trkpt lat="49.00076" lon="2.06926">
        <ele>22</ele>
        <time>2020-07-03T17:45:54Z</time>
      </trkpt>
      <trkpt lat="49.00073" lon="2.06909">
        <ele>22</ele>
        <time>2020-07-03T17:46:02Z</time>
      </trkpt>
      <trkpt lat="49.00072" lon="2.06896">
        <ele>22</ele>
        <time>2020-07-03T17:46:11Z</time>
      </trkpt>
      <trkpt lat="49.00068" lon="2.06881">
        <ele>22</ele>
        <time>2020-07-03T17:46:21Z</time>
      </trkpt>
      <trkpt lat="49.00063" lon="2.06866">
        <ele>22</ele>
        <time>2020-07-03T17:46:29Z</time>
      </trkpt>
      <trkpt lat="49.00058" lon="2.06852">
        <ele>22</ele>
        <time>2020-07-03T17:46:36Z</time>
      </trkpt>
      <trkpt lat="49.00054" lon="2.06838">
        <ele>22</ele>
        <time>2020-07-03T17:46:44Z</time>
      </trkpt>
      <trkpt lat="49.00052" lon="2.06823">
        <ele>23</ele>
        <time>2020-07-03T17:46:52Z</time>
      </trkpt>
      <trkpt lat="49.00049" lon="2.06806">
        <ele>24</ele>
        <time>2020-07-03T17:47:00Z</time>
      </trkpt>
      <trkpt lat="49.00046" lon="2.06791">
        <ele>24</ele>
        <time>2020-07-03T17:47:08Z</time>
      </trkpt>
      <trkpt lat="49.00044" lon="2.06776">
        <ele>24</ele>
        <time>2020-07-03T17:47:15Z</time>
      </trkpt>
      <trkpt lat="49.00041" lon="2.06758">
        <ele>24</ele>
        <time>2020-07-03T17:47:23Z</time>
      </trkpt>
      <trkpt lat="49.00039" lon="2.06745">
        <ele>25</ele>
        <time>2020-07-03T17:47:30Z</time>
      </trkpt>
      <trkpt lat="49.00038" lon="2.06729">
        <ele>25</ele>
        <time>2020-07-03T17:47:37Z</time>
      </trkpt>
      <trkpt lat="49.00035" lon="2.06714">
        <ele>25</ele>
        <time>2020-07-03T17:47:44Z</time>
      </trkpt>
      <trkpt lat="49.00033" lon="2.06699">
        <ele>25</ele>
        <time>2020-07-03T17:47:50Z</time>
      </trkpt>
      <trkpt lat="49.0003" lon="2.06683">
        <ele>25</ele>
        <time>2020-07-03T17:47:57Z</time>
      </trkpt>
      <trkpt lat="49.00028" lon="2.06669">
        <ele>25</ele>
        <time>2020-07-03T17:48:06Z</time>
      </trkpt>
      <trkpt lat="49.00024" lon="2.06654">
        <ele>26</ele>
        <time>2020-07-03T17:48:14Z</time>
      </trkpt>
      <trkpt lat="49.0002" lon="2.06639">
        <ele>26</ele>
        <time>2020-07-03T17:48:21Z</time>
      </trkpt>
      <trkpt lat="49.00015" lon="2.06627">
        <ele>26</ele>
        <time>2020-07-03T17:48:27Z</time>
      </trkpt>
      <trkpt lat="49.00007" lon="2.0662">
        <ele>26</ele>
        <time>2020-07-03T17:48:36Z</time>
      </trkpt>
      <trkpt lat="49.00003" lon="2.06604">
        <ele>26</ele>
        <time>2020-07-03T17:48:45Z</time>
      </trkpt>
      <trkpt lat="49.00001" lon="2.0659">
        <ele>25</ele>
        <time>2020-07-03T17:48:52Z</time>
      </trkpt>
      <trkpt lat="48.99998" lon="2.06574">
        <ele>24</ele>
        <time>2020-07-03T17:49:00Z</time>
      </trkpt>
      <trkpt lat="48.99996" lon="2.06558">
        <ele>24</ele>
        <time>2020-07-03T17:49:10Z</time>
      </trkpt>
      <trkpt lat="48.99994" lon="2.06542">
        <ele>24</ele>
        <time>2020-07-03T17:49:18Z</time>
      </trkpt>
      <trkpt lat="48.9999" lon="2.06526">
        <ele>24</ele>
        <time>2020-07-03T17:49:25Z</time>
      </trkpt>
      <trkpt lat="48.99985" lon="2.06511">
        <ele>24</ele>
        <time>2020-07-03T17:49:31Z</time>
      </trkpt>
      <trkpt lat="48.99983" lon="2.06497">
        <ele>23</ele>
        <time>2020-07-03T17:49:39Z</time>
      </trkpt>
      <trkpt lat="48.99983" lon="2.0648">
        <ele>23</ele>
        <time>2020-07-03T17:49:48Z</time>
      </trkpt>
      <trkpt lat="48.9998" lon="2.06467">
        <ele>23</ele>
        <time>2020-07-03T17:49:54Z</time>
      </trkpt>
      <trkpt lat="48.99977" lon="2.06452">
        <ele>23</ele>
        <time>2020-07-03T17:50:01Z</time>
      </trkpt>
      <trkpt lat="48.99974" lon="2.06435">
        <ele>23</ele>
        <time>2020-07-03T17:50:10Z</time>
      </trkpt>
      <trkpt lat="48.99975" lon="2.06421">
        <ele>23</ele>
        <time>2020-07-03T17:50:18Z</time>
      </trkpt>
      <trkpt lat="48.99972" lon="2.06406">
        <ele>24</ele>
        <time>2020-07-03T17:50:24Z</time>
      </trkpt>
      <trkpt lat="48.99968" lon="2.06392">
        <ele>23</ele>
        <time>2020-07-03T17:50:30Z</time>
      </trkpt>
      <trkpt lat="48.99964" lon="2.06377">
        <ele>24</ele>
        <time>2020-07-03T17:50:38Z</time>
      </trkpt>
      <trkpt lat="48.9996" lon="2.06363">
        <ele>24</ele>
        <time>2020-07-03T17:50:46Z</time>
      </trkpt>
      <trkpt lat="48.99959" lon="2.06347">
        <ele>24</ele>
        <time>2020-07-03T17:50:54Z</time>
      </trkpt>
      <trkpt lat="48.99956" lon="2.06332">
        <ele>24</ele>
        <time>2020-07-03T17:51:02Z</time>
      </trkpt>
      <trkpt lat="48.99954" lon="2.06317">
        <ele>24</ele>
        <time>2020-07-03T17:51:10Z</time>
      </trkpt>
      <trkpt lat="48.99953" lon="2.063">
        <ele>24</ele>
        <time>2020-07-03T17:51:18Z</time>
      </trkpt>
      <trkpt lat="48.99949" lon="2.06286">
        <ele>24</ele>
        <time>2020-07-03T17:51:25Z</time>
      </trkpt>
      <trkpt lat="48.99946" lon="2.06271">
        <ele>24</ele>
        <time>2020-07-03T17:51:32Z</time>
      </trkpt>
      <trkpt lat="48.99945" lon="2.06254">
        <ele>24</ele>
        <time>2020-07-03T17:51:40Z</time>
      </trkpt>
      <trkpt lat="48.99945" lon="2.06239">
        <ele>24</ele>
        <time>2020-07-03T17:51:48Z</time>
      </trkpt>
      <trkpt lat="48.99943" lon="2.06222">
        <ele>24</ele>
        <time>2020-07-03T17:51:56Z</time>
      </trkpt>
      <trkpt lat="48.9994" lon="2.06206">
        <ele>24</ele>
        <time>2020-07-03T17:52:04Z</time>
      </trkpt>
      <trkpt lat="48.99937" lon="2.06192">
        <ele>24</ele>
        <time>2020-07-03T17:52:10Z</time>
      </trkpt>
      <trkpt lat="48.99934" lon="2.06178">
        <ele>24</ele>
        <time>2020-07-03T17:52:17Z</time>
      </trkpt>
      <trkpt lat="48.9993" lon="2.06163">
        <ele>25</ele>
        <time>2020-07-03T17:52:26Z</time>
      </trkpt>
      <trkpt lat="48.99928" lon="2.06147">
        <ele>25</ele>
        <time>2020-07-03T17:52:34Z</time>
      </trkpt>
      <trkpt lat="48.99926" lon="2.06132">
        <ele>25</ele>
        <time>2020-07-03T17:52:41Z</time>
      </trkpt>
      <trkpt lat="48.99923" lon="2.06117">
        <ele>25</ele>
        <time>2020-07-03T17:52:48Z</time>
      </trkpt>
      <trkpt lat="48.9992" lon="2.061">
        <ele>25</ele>
        <time>2020-07-03T17:52:56Z</time>
      </trkpt>
      <trkpt lat="48.99916" lon="2.06084">
        <ele>26</ele>
        <time>2020-07-03T17:53:04Z</time>
      </trkpt>
      <trkpt lat="48.99913" lon="2.06068">
        <ele>26</ele>
        <time>2020-07-03T17:53:11Z</time>
      </trkpt>
      <trkpt lat="48.99912" lon="2.06053">
        <ele>26</ele>
        <time>2020-07-03T17:53:18Z</time>
      </trkpt>
      <trkpt lat="48.99913" lon="2.06038">
        <ele>26</ele>
        <time>2020-07-03T17:53:27Z</time>
      </trkpt>
      <trkpt lat="48.99913" lon="2.06024">
        <ele>26</ele>
        <time>2020-07-03T17:53:33Z</time>
      </trkpt>
      <trkpt lat="48.99913" lon="2.06009">
        <ele>26</ele>
        <time>2020-07-03T17:53:44Z</time>
      </trkpt>
      <trkpt lat="48.9991" lon="2.05994">
        <ele>27</ele>
        <time>2020-07-03T17:53:52Z</time>
      </trkpt>
      <trkpt lat="48.99905" lon="2.0598">
        <ele>27</ele>
        <time>2020-07-03T17:54:00Z</time>
      </trkpt>
      <trkpt lat="48.99897" lon="2.0597">
        <ele>27</ele>
        <time>2020-07-03T17:54:11Z</time>
      </trkpt>
      <trkpt lat="48.99893" lon="2.0595">
        <ele>28</ele>
        <time>2020-07-03T17:54:13Z</time>
      </trkpt>
      <trkpt lat="48.99888" lon="2.05935">
        <ele>28</ele>
        <time>2020-07-03T17:54:16Z</time>
      </trkpt>
      <trkpt lat="48.99885" lon="2.05921">
        <ele>28</ele>
        <time>2020-07-03T17:54:24Z</time>
      </trkpt>
      <trkpt lat="48.99884" lon="2.05906">
        <ele>30</ele>
        <time>2020-07-03T17:54:40Z</time>
      </trkpt>
      <trkpt lat="48.99881" lon="2.05893">
        <ele>30</ele>
        <time>2020-07-03T17:54:54Z</time>
      </trkpt>
      <trkpt lat="48.99882" lon="2.05879">
        <ele>30</ele>
        <time>2020-07-03T17:55:04Z</time>
      </trkpt>
      <trkpt lat="48.99879" lon="2.05865">
        <ele>30</ele>
        <time>2020-07-03T17:55:11Z</time>
      </trkpt>
      <trkpt lat="48.99878" lon="2.05848">
        <ele>31</ele>
        <time>2020-07-03T17:55:19Z</time>
      </trkpt>
      <trkpt lat="48.99874" lon="2.05835">
        <ele>31</ele>
        <time>2020-07-03T17:55:26Z</time>
      </trkpt>
      <trkpt lat="48.99871" lon="2.0582">
        <ele>34</ele>
        <time>2020-07-03T17:55:35Z</time>
      </trkpt>
      <trkpt lat="48.99867" lon="2.05806">
        <ele>35</ele>
        <time>2020-07-03T17:55:43Z</time>
      </trkpt>
      <trkpt lat="48.99865" lon="2.0579">
        <ele>35</ele>
        <time>2020-07-03T17:55:51Z</time>
      </trkpt>
      <trkpt lat="48.99864" lon="2.05773">
        <ele>36</ele>
        <time>2020-07-03T17:56:00Z</time>
      </trkpt>
      <trkpt lat="48.99862" lon="2.05759">
        <ele>36</ele>
        <time>2020-07-03T17:56:09Z</time>
      </trkpt>
      <trkpt lat="48.99859" lon="2.05745">
        <ele>40</ele>
        <time>2020-07-03T17:56:19Z</time>
      </trkpt>
      <trkpt lat="48.99859" lon="2.0573">
        <ele>41</ele>
        <time>2020-07-03T17:56:30Z</time>
      </trkpt>
      <trkpt lat="48.99857" lon="2.0571">
        <ele>41</ele>
        <time>2020-07-03T17:56:46Z</time>
      </trkpt>
      <trkpt lat="48.99851" lon="2.05697">
        <ele>42</ele>
        <time>2020-07-03T17:56:55Z</time>
      </trkpt>
      <trkpt lat="48.99848" lon="2.05681">
        <ele>43</ele>
        <time>2020-07-03T17:57:02Z</time>
      </trkpt>
      <trkpt lat="48.99844" lon="2.05666">
        <ele>46</ele>
        <time>2020-07-03T17:57:09Z</time>
      </trkpt>
      <trkpt lat="48.99842" lon="2.05653">
        <ele>47</ele>
        <time>2020-07-03T17:57:16Z</time>
      </trkpt>
      <trkpt lat="48.99842" lon="2.05639">
        <ele>48</ele>
        <time>2020-07-03T17:57:24Z</time>
      </trkpt>
      <trkpt lat="48.99838" lon="2.05626">
        <ele>48</ele>
        <time>2020-07-03T17:57:34Z</time>
      </trkpt>
      <trkpt lat="48.99832" lon="2.05614">
        <ele>49</ele>
        <time>2020-07-03T17:57:44Z</time>
      </trkpt>
      <trkpt lat="48.99823" lon="2.05607">
        <ele>49</ele>
        <time>2020-07-03T17:57:53Z</time>
      </trkpt>
      <trkpt lat="48.99814" lon="2.05599">
        <ele>49</ele>
        <time>2020-07-03T17:58:01Z</time>
      </trkpt>
      <trkpt lat="48.99807" lon="2.0559">
        <ele>49</ele>
        <time>2020-07-03T17:58:13Z</time>
      </trkpt>
      <trkpt lat="48.99799" lon="2.05582">
        <ele>54</ele>
        <time>2020-07-03T17:58:19Z</time>
      </trkpt>
      <trkpt lat="48.99789" lon="2.05579">
        <ele>54</ele>
        <time>2020-07-03T17:58:29Z</time>
      </trkpt>
      <trkpt lat="48.99779" lon="2.05582">
        <ele>54</ele>
        <time>2020-07-03T17:58:40Z</time>
      </trkpt>
      <trkpt lat="48.99769" lon="2.05583">
        <ele>53</ele>
        <time>2020-07-03T17:58:50Z</time>
      </trkpt>
      <trkpt lat="48.99759" lon="2.05584">
        <ele>51</ele>
        <time>2020-07-03T17:58:58Z</time>
      </trkpt>
      <trkpt lat="48.99749" lon="2.05587">
        <ele>51</ele>
        <time>2020-07-03T17:59:04Z</time>
      </trkpt>
      <trkpt lat="48.99739" lon="2.05587">
        <ele>51</ele>
        <time>2020-07-03T17:59:11Z</time>
      </trkpt>
      <trkpt lat="48.9971" lon="2.05601">
        <ele>50</ele>
        <time>2020-07-03T17:59:40Z</time>
      </trkpt>
      <trkpt lat="48.99701" lon="2.05606">
        <ele>50</ele>
        <time>2020-07-03T17:59:52Z</time>
      </trkpt>
      <trkpt lat="48.99694" lon="2.05618">
        <ele>49</ele>
        <time>2020-07-03T18:00:13Z</time>
      </trkpt>
      <trkpt lat="48.99684" lon="2.05625">
        <ele>49</ele>
        <time>2020-07-03T18:00:22Z</time>
      </trkpt>
      <trkpt lat="48.99674" lon="2.05629">
        <ele>49</ele>
        <time>2020-07-03T18:00:35Z</time>
      </trkpt>
      <trkpt lat="48.99663" lon="2.05632">
        <ele>47</ele>
        <time>2020-07-03T18:00:44Z</time>
      </trkpt>
      <trkpt lat="48.99655" lon="2.05638">
        <ele>46</ele>
        <time>2020-07-03T18:00:51Z</time>
      </trkpt>
      <trkpt lat="48.99645" lon="2.05639">
        <ele>46</ele>
        <time>2020-07-03T18:01:02Z</time>
      </trkpt>
      <trkpt lat="48.99636" lon="2.05642">
        <ele>46</ele>
        <time>2020-07-03T18:01:12Z</time>
      </trkpt>
      <trkpt lat="48.99637" lon="2.05657">
        <ele>45</ele>
        <time>2020-07-03T18:01:21Z</time>
      </trkpt>
      <trkpt lat="48.99637" lon="2.05671">
        <ele>43</ele>
        <time>2020-07-03T18:01:40Z</time>
      </trkpt>
      <trkpt lat="48.99644" lon="2.05681">
        <ele>43</ele>
        <time>2020-07-03T18:01:48Z</time>
      </trkpt>
      <trkpt lat="48.99651" lon="2.05693">
        <ele>42</ele>
        <time>2020-07-03T18:01:56Z</time>
      </trkpt>
      <trkpt lat="48.99655" lon="2.05708">
        <ele>42</ele>
        <time>2020-07-03T18:02:04Z</time>
      </trkpt>
      <trkpt lat="48.99657" lon="2.05723">
        <ele>41</ele>
        <time>2020-07-03T18:02:13Z</time>
      </trkpt>
      <trkpt lat="48.99648" lon="2.05733">
        <ele>40</ele>
        <time>2020-07-03T18:02:30Z</time>
      </trkpt>
      <trkpt lat="48.99641" lon="2.05745">
        <ele>40</ele>
        <time>2020-07-03T18:02:37Z</time>
      </trkpt>
      <trkpt lat="48.99633" lon="2.05756">
        <ele>39</ele>
        <time>2020-07-03T18:02:44Z</time>
      </trkpt>
      <trkpt lat="48.99625" lon="2.05763">
        <ele>39</ele>
        <time>2020-07-03T18:02:51Z</time>
      </trkpt>
      <trkpt lat="48.99616" lon="2.0577">
        <ele>39</ele>
        <time>2020-07-03T18:03:00Z</time>
      </trkpt>
      <trkpt lat="48.99606" lon="2.05771">
        <ele>39</ele>
        <time>2020-07-03T18:03:07Z</time>
      </trkpt>
      <trkpt lat="48.99596" lon="2.0577">
        <ele>40</ele>
        <time>2020-07-03T18:03:16Z</time>
      </trkpt>
      <trkpt lat="48.99588" lon="2.0576">
        <ele>40</ele>
        <time>2020-07-03T18:03:27Z</time>
      </trkpt>
      <trkpt lat="48.99579" lon="2.0575">
        <ele>42</ele>
        <time>2020-07-03T18:03:37Z</time>
      </trkpt>
      <trkpt lat="48.99571" lon="2.05742">
        <ele>44</ele>
        <time>2020-07-03T18:03:44Z</time>
      </trkpt>
      <trkpt lat="48.99561" lon="2.05735">
        <ele>45</ele>
        <time>2020-07-03T18:03:53Z</time>
      </trkpt>
      <trkpt lat="48.99554" lon="2.05726">
        <ele>46</ele>
        <time>2020-07-03T18:04:03Z</time>
      </trkpt>
      <trkpt lat="48.99547" lon="2.05713">
        <ele>46</ele>
        <time>2020-07-03T18:04:11Z</time>
      </trkpt>
      <trkpt lat="48.99538" lon="2.05707">
        <ele>47</ele>
        <time>2020-07-03T18:04:18Z</time>
      </trkpt>
      <trkpt lat="48.9953" lon="2.05696">
        <ele>48</ele>
        <time>2020-07-03T18:04:28Z</time>
      </trkpt>
      <trkpt lat="48.9952" lon="2.05688">
        <ele>48</ele>
        <time>2020-07-03T18:04:37Z</time>
      </trkpt>
      <trkpt lat="48.9951" lon="2.05686">
        <ele>49</ele>
        <time>2020-07-03T18:04:45Z</time>
      </trkpt>
      <trkpt lat="48.99501" lon="2.0568">
        <ele>50</ele>
        <time>2020-07-03T18:04:53Z</time>
      </trkpt>
      <trkpt lat="48.99494" lon="2.0567">
        <ele>52</ele>
        <time>2020-07-03T18:05:03Z</time>
      </trkpt>
      <trkpt lat="48.99487" lon="2.0566">
        <ele>53</ele>
        <time>2020-07-03T18:05:12Z</time>
      </trkpt>
      <trkpt lat="48.99482" lon="2.05646">
        <ele>53</ele>
        <time>2020-07-03T18:05:21Z</time>
      </trkpt>
      <trkpt lat="48.99475" lon="2.05659">
        <ele>53</ele>
        <time>2020-07-03T18:06:13Z</time>
      </trkpt>
      <trkpt lat="48.99477" lon="2.05673">
        <ele>53</ele>
        <time>2020-07-03T18:06:21Z</time>
      </trkpt>
      <trkpt lat="48.9948" lon="2.05688">
        <ele>53</ele>
        <time>2020-07-03T18:06:29Z</time>
      </trkpt>
      <trkpt lat="48.99482" lon="2.05703">
        <ele>53</ele>
        <time>2020-07-03T18:06:37Z</time>
      </trkpt>
      <trkpt lat="48.99483" lon="2.0572">
        <ele>53</ele>
        <time>2020-07-03T18:06:46Z</time>
      </trkpt>
      <trkpt lat="48.99486" lon="2.05735">
        <ele>53</ele>
        <time>2020-07-03T18:06:57Z</time>
      </trkpt>
      <trkpt lat="48.99479" lon="2.05746">
        <ele>53</ele>
        <time>2020-07-03T18:07:05Z</time>
      </trkpt>
      <trkpt lat="48.99468" lon="2.05746">
        <ele>53</ele>
        <time>2020-07-03T18:07:13Z</time>
      </trkpt>
      <trkpt lat="48.99457" lon="2.05748">
        <ele>53</ele>
        <time>2020-07-03T18:07:21Z</time>
      </trkpt>
      <trkpt lat="48.99447" lon="2.05748">
        <ele>54</ele>
        <time>2020-07-03T18:07:29Z</time>
      </trkpt>
      <trkpt lat="48.99436" lon="2.05748">
        <ele>54</ele>
        <time>2020-07-03T18:07:37Z</time>
      </trkpt>
      <trkpt lat="48.99425" lon="2.05749">
        <ele>54</ele>
        <time>2020-07-03T18:07:45Z</time>
      </trkpt>
      <trkpt lat="48.99414" lon="2.0575">
        <ele>54</ele>
        <time>2020-07-03T18:07:53Z</time>
      </trkpt>
      <trkpt lat="48.99405" lon="2.05752">
        <ele>53</ele>
        <time>2020-07-03T18:08:00Z</time>
      </trkpt>
      <trkpt lat="48.99394" lon="2.05754">
        <ele>53</ele>
        <time>2020-07-03T18:08:09Z</time>
      </trkpt>
      <trkpt lat="48.99383" lon="2.05755">
        <ele>53</ele>
        <time>2020-07-03T18:08:17Z</time>
      </trkpt>
      <trkpt lat="48.99371" lon="2.05757">
        <ele>53</ele>
        <time>2020-07-03T18:08:25Z</time>
      </trkpt>
      <trkpt lat="48.99361" lon="2.05759">
        <ele>53</ele>
        <time>2020-07-03T18:08:32Z</time>
      </trkpt>
      <trkpt lat="48.99351" lon="2.0576">
        <ele>54</ele>
        <time>2020-07-03T18:08:40Z</time>
      </trkpt>
      <trkpt lat="48.99341" lon="2.05759">
        <ele>55</ele>
        <time>2020-07-03T18:08:49Z</time>
      </trkpt>
      <trkpt lat="48.99331" lon="2.0576">
        <ele>56</ele>
        <time>2020-07-03T18:08:57Z</time>
      </trkpt>
      <trkpt lat="48.99321" lon="2.05759">
        <ele>56</ele>
        <time>2020-07-03T18:09:05Z</time>
      </trkpt>
      <trkpt lat="48.99311" lon="2.0576">
        <ele>55</ele>
        <time>2020-07-03T18:09:13Z</time>
      </trkpt>
      <trkpt lat="48.993" lon="2.05764">
        <ele>55</ele>
        <time>2020-07-03T18:09:21Z</time>
      </trkpt>
      <trkpt lat="48.99289" lon="2.05769">
        <ele>55</ele>
        <time>2020-07-03T18:09:29Z</time>
      </trkpt>
      <trkpt lat="48.99279" lon="2.05775">
        <ele>55</ele>
        <time>2020-07-03T18:09:37Z</time>
      </trkpt>
      <trkpt lat="48.9927" lon="2.0578">
        <ele>55</ele>
        <time>2020-07-03T18:09:45Z</time>
      </trkpt>
      <trkpt lat="48.9926" lon="2.05784">
        <ele>55</ele>
        <time>2020-07-03T18:09:53Z</time>
      </trkpt>
      <trkpt lat="48.9925" lon="2.05781">
        <ele>56</ele>
        <time>2020-07-03T18:10:10Z</time>
      </trkpt>
      <trkpt lat="48.99248" lon="2.05762">
        <ele>57</ele>
        <time>2020-07-03T18:10:26Z</time>
      </trkpt>
      <trkpt lat="48.99253" lon="2.05748">
        <ele>58</ele>
        <time>2020-07-03T18:10:36Z</time>
      </trkpt>
      <trkpt lat="48.99256" lon="2.05732">
        <ele>59</ele>
        <time>2020-07-03T18:10:45Z</time>
      </trkpt>
      <trkpt lat="48.99259" lon="2.05719">
        <ele>60</ele>
        <time>2020-07-03T18:10:55Z</time>
      </trkpt>
      <trkpt lat="48.99262" lon="2.05703">
        <ele>60</ele>
        <time>2020-07-03T18:11:03Z</time>
      </trkpt>
      <trkpt lat="48.99261" lon="2.05687">
        <ele>61</ele>
        <time>2020-07-03T18:11:10Z</time>
      </trkpt>
      <trkpt lat="48.99263" lon="2.05672">
        <ele>62</ele>
        <time>2020-07-03T18:11:17Z</time>
      </trkpt>
      <trkpt lat="48.99264" lon="2.05657">
        <ele>63</ele>
        <time>2020-07-03T18:11:25Z</time>
      </trkpt>
      <trkpt lat="48.99265" lon="2.05643">
        <ele>63</ele>
        <time>2020-07-03T18:11:34Z</time>
      </trkpt>
      <trkpt lat="48.99266" lon="2.05628">
        <ele>64</ele>
        <time>2020-07-03T18:11:43Z</time>
      </trkpt>
      <trkpt lat="48.99265" lon="2.05612">
        <ele>64</ele>
        <time>2020-07-03T18:11:53Z</time>
      </trkpt>
      <trkpt lat="48.99266" lon="2.05597">
        <ele>65</ele>
        <time>2020-07-03T18:12:00Z</time>
      </trkpt>
      <trkpt lat="48.99265" lon="2.05582">
        <ele>66</ele>
        <time>2020-07-03T18:12:08Z</time>
      </trkpt>
      <trkpt lat="48.99265" lon="2.05567">
        <ele>66</ele>
        <time>2020-07-03T18:12:16Z</time>
      </trkpt>
      <trkpt lat="48.99265" lon="2.0555">
        <ele>66</ele>
        <time>2020-07-03T18:12:25Z</time>
      </trkpt>
      <trkpt lat="48.99264" lon="2.05533">
        <ele>66</ele>
        <time>2020-07-03T18:12:34Z</time>
      </trkpt>
      <trkpt lat="48.99263" lon="2.05518">
        <ele>66</ele>
        <time>2020-07-03T18:12:40Z</time>
      </trkpt>
      <trkpt lat="48.99261" lon="2.05503">
        <ele>67</ele>
        <time>2020-07-03T18:12:47Z</time>
      </trkpt>
      <trkpt lat="48.99259" lon="2.05485">
        <ele>67</ele>
        <time>2020-07-03T18:12:55Z</time>
      </trkpt>
      <trkpt lat="48.99258" lon="2.05468">
        <ele>67</ele>
        <time>2020-07-03T18:13:03Z</time>
      </trkpt>
      <trkpt lat="48.99255" lon="2.05453">
        <ele>67</ele>
        <time>2020-07-03T18:13:11Z</time>
      </trkpt>
      <trkpt lat="48.99255" lon="2.05437">
        <ele>68</ele>
        <time>2020-07-03T18:13:19Z</time>
      </trkpt>
      <trkpt lat="48.99254" lon="2.0542">
        <ele>68</ele>
        <time>2020-07-03T18:13:28Z</time>
      </trkpt>
      <trkpt lat="48.99253" lon="2.05404">
        <ele>68</ele>
        <time>2020-07-03T18:13:36Z</time>
      </trkpt>
      <trkpt lat="48.99255" lon="2.05389">
        <ele>68</ele>
        <time>2020-07-03T18:13:43Z</time>
      </trkpt>
      <trkpt lat="48.99252" lon="2.05375">
        <ele>68</ele>
        <time>2020-07-03T18:13:51Z</time>
      </trkpt>
      <trkpt lat="48.99248" lon="2.0536">
        <ele>71</ele>
        <time>2020-07-03T18:13:57Z</time>
      </trkpt>
      <trkpt lat="48.99247" lon="2.05344">
        <ele>71</ele>
        <time>2020-07-03T18:14:06Z</time>
      </trkpt>
      <trkpt lat="48.99243" lon="2.0533">
        <ele>71</ele>
        <time>2020-07-03T18:14:14Z</time>
      </trkpt>
      <trkpt lat="48.99239" lon="2.05315">
        <ele>72</ele>
        <time>2020-07-03T18:14:23Z</time>
      </trkpt>
      <trkpt lat="48.99235" lon="2.05301">
        <ele>72</ele>
        <time>2020-07-03T18:14:30Z</time>
      </trkpt>
      <trkpt lat="48.99231" lon="2.05288">
        <ele>72</ele>
        <time>2020-07-03T18:14:38Z</time>
      </trkpt>
      <trkpt lat="48.99225" lon="2.05274">
        <ele>72</ele>
        <time>2020-07-03T18:14:47Z</time>
      </trkpt>
      <trkpt lat="48.9922" lon="2.05259">
        <ele>72</ele>
        <time>2020-07-03T18:14:56Z</time>
      </trkpt>
      <trkpt lat="48.99217" lon="2.05245">
        <ele>73</ele>
        <time>2020-07-03T18:15:02Z</time>
      </trkpt>
      <trkpt lat="48.99212" lon="2.05232">
        <ele>73</ele>
        <time>2020-07-03T18:15:09Z</time>
      </trkpt>
      <trkpt lat="48.99206" lon="2.05217">
        <ele>74</ele>
        <time>2020-07-03T18:15:17Z</time>
      </trkpt>
      <trkpt lat="48.99202" lon="2.05205">
        <ele>74</ele>
        <time>2020-07-03T18:15:24Z</time>
      </trkpt>
      <trkpt lat="48.99199" lon="2.0519">
        <ele>74</ele>
        <time>2020-07-03T18:15:33Z</time>
      </trkpt>
      <trkpt lat="48.99193" lon="2.05176">
        <ele>74</ele>
        <time>2020-07-03T18:15:41Z</time>
      </trkpt>
      <trkpt lat="48.99188" lon="2.05163">
        <ele>76</ele>
        <time>2020-07-03T18:15:48Z</time>
      </trkpt>
      <trkpt lat="48.99182" lon="2.05149">
        <ele>76</ele>
        <time>2020-07-03T18:15:58Z</time>
      </trkpt>
      <trkpt lat="48.99177" lon="2.05135">
        <ele>76</ele>
        <time>2020-07-03T18:16:05Z</time>
      </trkpt>
      <trkpt lat="48.99171" lon="2.05123">
        <ele>76</ele>
        <time>2020-07-03T18:16:12Z</time>
      </trkpt>
      <trkpt lat="48.99166" lon="2.05109">
        <ele>79</ele>
        <time>2020-07-03T18:16:20Z</time>
      </trkpt>
      <trkpt lat="48.99161" lon="2.05095">
        <ele>78</ele>
        <time>2020-07-03T18:16:28Z</time>
      </trkpt>
      <trkpt lat="48.99158" lon="2.05081">
        <ele>79</ele>
        <time>2020-07-03T18:16:35Z</time>
      </trkpt>
      <trkpt lat="48.99154" lon="2.05067">
        <ele>80</ele>
        <time>2020-07-03T18:16:44Z</time>
      </trkpt>
      <trkpt lat="48.99149" lon="2.05053">
        <ele>81</ele>
        <time>2020-07-03T18:16:52Z</time>
      </trkpt>
      <trkpt lat="48.99144" lon="2.05038">
        <ele>81</ele>
        <time>2020-07-03T18:17:00Z</time>
      </trkpt>
      <trkpt lat="48.99139" lon="2.05025">
        <ele>81</ele>
        <time>2020-07-03T18:17:07Z</time>
      </trkpt>
      <trkpt lat="48.99135" lon="2.05012">
        <ele>81</ele>
        <time>2020-07-03T18:17:15Z</time>
      </trkpt>
      <trkpt lat="48.9913" lon="2.04999">
        <ele>83</ele>
        <time>2020-07-03T18:17:23Z</time>
      </trkpt>
      <trkpt lat="48.99126" lon="2.04986">
        <ele>84</ele>
        <time>2020-07-03T18:17:34Z</time>
      </trkpt>
      <trkpt lat="48.99122" lon="2.0497">
        <ele>84</ele>
        <time>2020-07-03T18:17:42Z</time>
      </trkpt>
      <trkpt lat="48.9912" lon="2.04953">
        <ele>84</ele>
        <time>2020-07-03T18:17:50Z</time>
      </trkpt>
      <trkpt lat="48.99116" lon="2.04939">
        <ele>85</ele>
        <time>2020-07-03T18:17:59Z</time>
      </trkpt>
      <trkpt lat="48.99112" lon="2.04924">
        <ele>85</ele>
        <time>2020-07-03T18:18:08Z</time>
      </trkpt>
      <trkpt lat="48.99109" lon="2.04909">
        <ele>88</ele>
        <time>2020-07-03T18:18:19Z</time>
      </trkpt>
      <trkpt lat="48.99105" lon="2.04896">
        <ele>88</ele>
        <time>2020-07-03T18:18:30Z</time>
      </trkpt>
      <trkpt lat="48.99104" lon="2.04882">
        <ele>88</ele>
        <time>2020-07-03T18:18:39Z</time>
      </trkpt>
      <trkpt lat="48.991" lon="2.04868">
        <ele>89</ele>
        <time>2020-07-03T18:18:47Z</time>
      </trkpt>
      <trkpt lat="48.99098" lon="2.04853">
        <ele>90</ele>
        <time>2020-07-03T18:18:56Z</time>
      </trkpt>
      <trkpt lat="48.99095" lon="2.04838">
        <ele>91</ele>
        <time>2020-07-03T18:19:05Z</time>
      </trkpt>
      <trkpt lat="48.99093" lon="2.04823">
        <ele>92</ele>
        <time>2020-07-03T18:19:15Z</time>
      </trkpt>
      <trkpt lat="48.99091" lon="2.04808">
        <ele>92</ele>
        <time>2020-07-03T18:19:23Z</time>
      </trkpt>
      <trkpt lat="48.99088" lon="2.04793">
        <ele>92</ele>
        <time>2020-07-03T18:19:30Z</time>
      </trkpt>
      <trkpt lat="48.99083" lon="2.04779">
        <ele>95</ele>
        <time>2020-07-03T18:19:39Z</time>
      </trkpt>
      <trkpt lat="48.99075" lon="2.04768">
        <ele>95</ele>
        <time>2020-07-03T18:19:49Z</time>
      </trkpt>
      <trkpt lat="48.9907" lon="2.04755">
        <ele>95</ele>
        <time>2020-07-03T18:19:57Z</time>
      </trkpt>
      <trkpt lat="48.99065" lon="2.04742">
        <ele>96</ele>
        <time>2020-07-03T18:20:06Z</time>
      </trkpt>
      <trkpt lat="48.99059" lon="2.04729">
        <ele>96</ele>
        <time>2020-07-03T18:20:15Z</time>
      </trkpt>
      <trkpt lat="48.99055" lon="2.04714">
        <ele>97</ele>
        <time>2020-07-03T18:20:23Z</time>
      </trkpt>
      <trkpt lat="48.99045" lon="2.04708">
        <ele>97</ele>
        <time>2020-07-03T18:20:32Z</time>
      </trkpt>
      <trkpt lat="48.99036" lon="2.04715">
        <ele>97</ele>
        <time>2020-07-03T18:20:39Z</time>
      </trkpt>
      <trkpt lat="48.99027" lon="2.04721">
        <ele>97</ele>
        <time>2020-07-03T18:20:48Z</time>
      </trkpt>
      <trkpt lat="48.99017" lon="2.04723">
        <ele>97</ele>
        <time>2020-07-03T18:20:56Z</time>
      </trkpt>
      <trkpt lat="48.99007" lon="2.04729">
        <ele>97</ele>
        <time>2020-07-03T18:21:04Z</time>
      </trkpt>
      <trkpt lat="48.98997" lon="2.04733">
        <ele>99</ele>
        <time>2020-07-03T18:21:12Z</time>
      </trkpt>
      <trkpt lat="48.98987" lon="2.04738">
        <ele>99</ele>
        <time>2020-07-03T18:21:19Z</time>
      </trkpt>
      <trkpt lat="48.98978" lon="2.04745">
        <ele>100</ele>
        <time>2020-07-03T18:21:27Z</time>
      </trkpt>
      <trkpt lat="48.98969" lon="2.0475">
        <ele>99</ele>
        <time>2020-07-03T18:21:37Z</time>
      </trkpt>
      <trkpt lat="48.9896" lon="2.04755">
        <ele>99</ele>
        <time>2020-07-03T18:21:45Z</time>
      </trkpt>
      <trkpt lat="48.98951" lon="2.04762">
        <ele>100</ele>
        <time>2020-07-03T18:21:53Z</time>
      </trkpt>
      <trkpt lat="48.98941" lon="2.04765">
        <ele>100</ele>
        <time>2020-07-03T18:22:01Z</time>
      </trkpt>
      <trkpt lat="48.98932" lon="2.04771">
        <ele>100</ele>
        <time>2020-07-03T18:22:10Z</time>
      </trkpt>
      <trkpt lat="48.98922" lon="2.04775">
        <ele>100</ele>
        <time>2020-07-03T18:22:19Z</time>
      </trkpt>
      <trkpt lat="48.98912" lon="2.04781">
        <ele>102</ele>
        <time>2020-07-03T18:22:27Z</time>
      </trkpt>
      <trkpt lat="48.98902" lon="2.04786">
        <ele>102</ele>
        <time>2020-07-03T18:22:36Z</time>
      </trkpt>
      <trkpt lat="48.98892" lon="2.0479">
        <ele>102</ele>
        <time>2020-07-03T18:22:45Z</time>
      </trkpt>
      <trkpt lat="48.98882" lon="2.04795">
        <ele>103</ele>
        <time>2020-07-03T18:22:54Z</time>
      </trkpt>
      <trkpt lat="48.98874" lon="2.04801">
        <ele>103</ele>
        <time>2020-07-03T18:23:02Z</time>
      </trkpt>
      <trkpt lat="48.98863" lon="2.04805">
        <ele>103</ele>
        <time>2020-07-03T18:23:11Z</time>
      </trkpt>
      <trkpt lat="48.98853" lon="2.0481">
        <ele>103</ele>
        <time>2020-07-03T18:23:21Z</time>
      </trkpt>
      <trkpt lat="48.98844" lon="2.04816">
        <ele>103</ele>
        <time>2020-07-03T18:23:30Z</time>
      </trkpt>
      <trkpt lat="48.98834" lon="2.04821">
        <ele>102</ele>
        <time>2020-07-03T18:23:40Z</time>
      </trkpt>
      <trkpt lat="48.98824" lon="2.04827">
        <ele>104</ele>
        <time>2020-07-03T18:23:48Z</time>
      </trkpt>
      <trkpt lat="48.98814" lon="2.0483">
        <ele>105</ele>
        <time>2020-07-03T18:23:57Z</time>
      </trkpt>
      <trkpt lat="48.98805" lon="2.04835">
        <ele>102</ele>
        <time>2020-07-03T18:24:03Z</time>
      </trkpt>
      <trkpt lat="48.98795" lon="2.04841">
        <ele>103</ele>
        <time>2020-07-03T18:24:11Z</time>
      </trkpt>
      <trkpt lat="48.98786" lon="2.04846">
        <ele>103</ele>
        <time>2020-07-03T18:24:19Z</time>
      </trkpt>
      <trkpt lat="48.98776" lon="2.0485">
        <ele>103</ele>
        <time>2020-07-03T18:24:27Z</time>
      </trkpt>
      <trkpt lat="48.98765" lon="2.04853">
        <ele>104</ele>
        <time>2020-07-03T18:24:36Z</time>
      </trkpt>
      <trkpt lat="48.98757" lon="2.04861">
        <ele>104</ele>
        <time>2020-07-03T18:24:44Z</time>
      </trkpt>
      <trkpt lat="48.98747" lon="2.04863">
        <ele>105</ele>
        <time>2020-07-03T18:24:53Z</time>
      </trkpt>
      <trkpt lat="48.98736" lon="2.04861">
        <ele>105</ele>
        <time>2020-07-03T18:25:02Z</time>
      </trkpt>
      <trkpt lat="48.98728" lon="2.0485">
        <ele>105</ele>
        <time>2020-07-03T18:25:12Z</time>
      </trkpt>
      <trkpt lat="48.98727" lon="2.04835">
        <ele>106</ele>
        <time>2020-07-03T18:25:19Z</time>
      </trkpt>
      <trkpt lat="48.98727" lon="2.04819">
        <ele>109</ele>
        <time>2020-07-03T18:25:28Z</time>
      </trkpt>
      <trkpt lat="48.98727" lon="2.04803">
        <ele>110</ele>
        <time>2020-07-03T18:25:38Z</time>
      </trkpt>
      <trkpt lat="48.98718" lon="2.04795">
        <ele>110</ele>
        <time>2020-07-03T18:25:47Z</time>
      </trkpt>
      <trkpt lat="48.98707" lon="2.04795">
        <ele>110</ele>
        <time>2020-07-03T18:25:55Z</time>
      </trkpt>
      <trkpt lat="48.98698" lon="2.04799">
        <ele>110</ele>
        <time>2020-07-03T18:26:03Z</time>
      </trkpt>
      <trkpt lat="48.98691" lon="2.04788">
        <ele>111</ele>
        <time>2020-07-03T18:26:12Z</time>
      </trkpt>
      <trkpt lat="48.98692" lon="2.04773">
        <ele>112</ele>
        <time>2020-07-03T18:26:20Z</time>
      </trkpt>
      <trkpt lat="48.98694" lon="2.04759">
        <ele>112</ele>
        <time>2020-07-03T18:26:28Z</time>
      </trkpt>
      <trkpt lat="48.98688" lon="2.04747">
        <ele>116</ele>
        <time>2020-07-03T18:26:37Z</time>
      </trkpt>
      <trkpt lat="48.98678" lon="2.04746">
        <ele>116</ele>
        <time>2020-07-03T18:26:45Z</time>
      </trkpt>
      <trkpt lat="48.98666" lon="2.04745">
        <ele>117</ele>
        <time>2020-07-03T18:26:51Z</time>
      </trkpt>
      <trkpt lat="48.98657" lon="2.04751">
        <ele>115</ele>
        <time>2020-07-03T18:27:02Z</time>
      </trkpt>
      <trkpt lat="48.98648" lon="2.04756">
        <ele>114</ele>
        <time>2020-07-03T18:27:10Z</time>
      </trkpt>
      <trkpt lat="48.98637" lon="2.04755">
        <ele>114</ele>
        <time>2020-07-03T18:27:16Z</time>
      </trkpt>
      <trkpt lat="48.98628" lon="2.04751">
        <ele>114</ele>
        <time>2020-07-03T18:27:24Z</time>
      </trkpt>
      <trkpt lat="48.98617" lon="2.04753">
        <ele>114</ele>
        <time>2020-07-03T18:27:32Z</time>
      </trkpt>
      <trkpt lat="48.98607" lon="2.04755">
        <ele>114</ele>
        <time>2020-07-03T18:27:39Z</time>
      </trkpt>
      <trkpt lat="48.98596" lon="2.04758">
        <ele>114</ele>
        <time>2020-07-03T18:27:48Z</time>
      </trkpt>
      <trkpt lat="48.98587" lon="2.04761">
        <ele>115</ele>
        <time>2020-07-03T18:27:55Z</time>
      </trkpt>
      <trkpt lat="48.98577" lon="2.04763">
        <ele>117</ele>
        <time>2020-07-03T18:28:02Z</time>
      </trkpt>
      <trkpt lat="48.98567" lon="2.04763">
        <ele>117</ele>
        <time>2020-07-03T18:28:11Z</time>
      </trkpt>
      <trkpt lat="48.98561" lon="2.04752">
        <ele>117</ele>
        <time>2020-07-03T18:28:28Z</time>
      </trkpt>
      <trkpt lat="48.98559" lon="2.04737">
        <ele>124</ele>
        <time>2020-07-03T18:28:38Z</time>
      </trkpt>
      <trkpt lat="48.98557" lon="2.04722">
        <ele>125</ele>
        <time>2020-07-03T18:28:49Z</time>
      </trkpt>
      <trkpt lat="48.98552" lon="2.04708">
        <ele>127</ele>
        <time>2020-07-03T18:28:59Z</time>
      </trkpt>
      <trkpt lat="48.98551" lon="2.04693">
        <ele>128</ele>
        <time>2020-07-03T18:29:10Z</time>
      </trkpt>
      <trkpt lat="48.98548" lon="2.0468">
        <ele>129</ele>
        <time>2020-07-03T18:29:22Z</time>
      </trkpt>
      <trkpt lat="48.98546" lon="2.04665">
        <ele>136</ele>
        <time>2020-07-03T18:29:32Z</time>
      </trkpt>
      <trkpt lat="48.98547" lon="2.0465">
        <ele>136</ele>
        <time>2020-07-03T18:29:43Z</time>
      </trkpt>
      <trkpt lat="48.98551" lon="2.04635">
        <ele>137</ele>
        <time>2020-07-03T18:29:52Z</time>
      </trkpt>
      <trkpt lat="48.98556" lon="2.04621">
        <ele>137</ele>
        <time>2020-07-03T18:30:02Z</time>
      </trkpt>
      <trkpt lat="48.9856" lon="2.04606">
        <ele>138</ele>
        <time>2020-07-03T18:30:17Z</time>
      </trkpt>
      <trkpt lat="48.9855" lon="2.04596">
        <ele>138</ele>
        <time>2020-07-03T18:30:30Z</time>
      </trkpt>
      <trkpt lat="48.98539" lon="2.04598">
        <ele>139</ele>
        <time>2020-07-03T18:30:42Z</time>
      </trkpt>
      <trkpt lat="48.9853" lon="2.04598">
        <ele>139</ele>
        <time>2020-07-03T18:30:51Z</time>
      </trkpt>
      <trkpt lat="48.98524" lon="2.04584">
        <ele>140</ele>
        <time>2020-07-03T18:31:01Z</time>
      </trkpt>
      <trkpt lat="48.98519" lon="2.04569">
        <ele>144</ele>
        <time>2020-07-03T18:31:13Z</time>
      </trkpt>
      <trkpt lat="48.98509" lon="2.04565">
        <ele>144</ele>
        <time>2020-07-03T18:31:20Z</time>
      </trkpt>
      <trkpt lat="48.98506" lon="2.04545">
        <ele>145</ele>
        <time>2020-07-03T18:31:34Z</time>
      </trkpt>
      <trkpt lat="48.98498" lon="2.0454">
        <ele>149</ele>
        <time>2020-07-03T18:31:42Z</time>
      </trkpt>
      <trkpt lat="48.98498" lon="2.04525">
        <ele>150</ele>
        <time>2020-07-03T18:31:50Z</time>
      </trkpt>
      <trkpt lat="48.98494" lon="2.04512">
        <ele>150</ele>
        <time>2020-07-03T18:31:58Z</time>
      </trkpt>
      <trkpt lat="48.98491" lon="2.04492">
        <ele>152</ele>
        <time>2020-07-03T18:32:16Z</time>
      </trkpt>
      <trkpt lat="48.98491" lon="2.04475">
        <ele>154</ele>
        <time>2020-07-03T18:32:27Z</time>
      </trkpt>
      <trkpt lat="48.9849" lon="2.0446">
        <ele>154</ele>
        <time>2020-07-03T18:32:35Z</time>
      </trkpt>
      <trkpt lat="48.98479" lon="2.04451">
        <ele>155</ele>
        <time>2020-07-03T18:32:53Z</time>
      </trkpt>
      <trkpt lat="48.98469" lon="2.04443">
        <ele>155</ele>
        <time>2020-07-03T18:33:02Z</time>
      </trkpt>
      <trkpt lat="48.98459" lon="2.04443">
        <ele>155</ele>
        <time>2020-07-03T18:33:11Z</time>
      </trkpt>
      <trkpt lat="48.98453" lon="2.04432">
        <ele>155</ele>
        <time>2020-07-03T18:33:19Z</time>
      </trkpt>
      <trkpt lat="48.98446" lon="2.0442">
        <ele>155</ele>
        <time>2020-07-03T18:33:27Z</time>
      </trkpt>
      <trkpt lat="48.98441" lon="2.04408">
        <ele>158</ele>
        <time>2020-07-03T18:33:37Z</time>
      </trkpt>
      <trkpt lat="48.98434" lon="2.04396">
        <ele>158</ele>
        <time>2020-07-03T18:33:44Z</time>
      </trkpt>
      <trkpt lat="48.98428" lon="2.04383">
        <ele>158</ele>
        <time>2020-07-03T18:33:56Z</time>
      </trkpt>
      <trkpt lat="48.98437" lon="2.04371">
        <ele>159</ele>
        <time>2020-07-03T18:34:28Z</time>
      </trkpt>
      <trkpt lat="48.98429" lon="2.04383">
        <ele>158</ele>
        <time>2020-07-03T18:35:55Z</time>
      </trkpt>
      <trkpt lat="48.98423" lon="2.04395">
        <ele>158</ele>
        <time>2020-07-03T18:36:05Z</time>
      </trkpt>
      <trkpt lat="48.98419" lon="2.04409">
        <ele>157</ele>
        <time>2020-07-03T18:36:14Z</time>
      </trkpt>
      <trkpt lat="48.98416" lon="2.04422">
        <ele>155</ele>
        <time>2020-07-03T18:36:24Z</time>
      </trkpt>
      <trkpt lat="48.98413" lon="2.04437">
        <ele>154</ele>
        <time>2020-07-03T18:36:38Z</time>
      </trkpt>
      <trkpt lat="48.98406" lon="2.04448">
        <ele>153</ele>
        <time>2020-07-03T18:36:49Z</time>
      </trkpt>
      <trkpt lat="48.98402" lon="2.04462">
        <ele>152</ele>
        <time>2020-07-03T18:36:58Z</time>
      </trkpt>
      <trkpt lat="48.98397" lon="2.04476">
        <ele>152</ele>
        <time>2020-07-03T18:37:07Z</time>
      </trkpt>
      <trkpt lat="48.98391" lon="2.04487">
        <ele>152</ele>
        <time>2020-07-03T18:37:15Z</time>
      </trkpt>
      <trkpt lat="48.98383" lon="2.045">
        <ele>149</ele>
        <time>2020-07-03T18:37:23Z</time>
      </trkpt>
      <trkpt lat="48.98378" lon="2.04512">
        <ele>149</ele>
        <time>2020-07-03T18:37:29Z</time>
      </trkpt>
      <trkpt lat="48.98371" lon="2.04525">
        <ele>148</ele>
        <time>2020-07-03T18:37:36Z</time>
      </trkpt>
      <trkpt lat="48.98366" lon="2.04537">
        <ele>148</ele>
        <time>2020-07-03T18:37:42Z</time>
      </trkpt>
      <trkpt lat="48.98362" lon="2.04551">
        <ele>147</ele>
        <time>2020-07-03T18:37:50Z</time>
      </trkpt>
      <trkpt lat="48.98357" lon="2.04566">
        <ele>146</ele>
        <time>2020-07-03T18:37:58Z</time>
      </trkpt>
      <trkpt lat="48.98353" lon="2.04579">
        <ele>144</ele>
        <time>2020-07-03T18:38:07Z</time>
      </trkpt>
      <trkpt lat="48.9835" lon="2.04593">
        <ele>141</ele>
        <time>2020-07-03T18:38:16Z</time>
      </trkpt>
      <trkpt lat="48.98349" lon="2.04608">
        <ele>141</ele>
        <time>2020-07-03T18:38:25Z</time>
      </trkpt>
      <trkpt lat="48.98346" lon="2.04625">
        <ele>141</ele>
        <time>2020-07-03T18:38:33Z</time>
      </trkpt>
      <trkpt lat="48.98343" lon="2.04642">
        <ele>140</ele>
        <time>2020-07-03T18:38:41Z</time>
      </trkpt>
      <trkpt lat="48.98341" lon="2.04656">
        <ele>138</ele>
        <time>2020-07-03T18:38:47Z</time>
      </trkpt>
      <trkpt lat="48.98338" lon="2.04671">
        <ele>136</ele>
        <time>2020-07-03T18:38:54Z</time>
      </trkpt>
      <trkpt lat="48.98336" lon="2.04686">
        <ele>135</ele>
        <time>2020-07-03T18:39:05Z</time>
      </trkpt>
      <trkpt lat="48.98336" lon="2.047">
        <ele>134</ele>
        <time>2020-07-03T18:39:20Z</time>
      </trkpt>
      <trkpt lat="48.98339" lon="2.04715">
        <ele>133</ele>
        <time>2020-07-03T18:39:31Z</time>
      </trkpt>
      <trkpt lat="48.98338" lon="2.04731">
        <ele>132</ele>
        <time>2020-07-03T18:39:40Z</time>
      </trkpt>
      <trkpt lat="48.98337" lon="2.04747">
        <ele>130</ele>
        <time>2020-07-03T18:39:48Z</time>
      </trkpt>
      <trkpt lat="48.9833" lon="2.04757">
        <ele>127</ele>
        <time>2020-07-03T18:40:00Z</time>
      </trkpt>
      <trkpt lat="48.98321" lon="2.04762">
        <ele>126</ele>
        <time>2020-07-03T18:40:07Z</time>
      </trkpt>
      <trkpt lat="48.98312" lon="2.0477">
        <ele>125</ele>
        <time>2020-07-03T18:40:14Z</time>
      </trkpt>
      <trkpt lat="48.98306" lon="2.04784">
        <ele>124</ele>
        <time>2020-07-03T18:40:22Z</time>
      </trkpt>
      <trkpt lat="48.98303" lon="2.048">
        <ele>123</ele>
        <time>2020-07-03T18:40:30Z</time>
      </trkpt>
      <trkpt lat="48.983" lon="2.04817">
        <ele>122</ele>
        <time>2020-07-03T18:40:38Z</time>
      </trkpt>
      <trkpt lat="48.98298" lon="2.04833">
        <ele>122</ele>
        <time>2020-07-03T18:40:46Z</time>
      </trkpt>
      <trkpt lat="48.98296" lon="2.04848">
        <ele>119</ele>
        <time>2020-07-03T18:40:54Z</time>
      </trkpt>
      <trkpt lat="48.98295" lon="2.04862">
        <ele>118</ele>
        <time>2020-07-03T18:41:03Z</time>
      </trkpt>
      <trkpt lat="48.98293" lon="2.04878">
        <ele>118</ele>
        <time>2020-07-03T18:41:13Z</time>
      </trkpt>
      <trkpt lat="48.98291" lon="2.04894">
        <ele>117</ele>
        <time>2020-07-03T18:41:22Z</time>
      </trkpt>
      <trkpt lat="48.98288" lon="2.0491">
        <ele>117</ele>
        <time>2020-07-03T18:41:30Z</time>
      </trkpt>
      <trkpt lat="48.98283" lon="2.04923">
        <ele>114</ele>
        <time>2020-07-03T18:41:50Z</time>
      </trkpt>
      <trkpt lat="48.98276" lon="2.04935">
        <ele>114</ele>
        <time>2020-07-03T18:42:02Z</time>
      </trkpt>
      <trkpt lat="48.98269" lon="2.04945">
        <ele>114</ele>
        <time>2020-07-03T18:42:10Z</time>
      </trkpt>
      <trkpt lat="48.98261" lon="2.04957">
        <ele>113</ele>
        <time>2020-07-03T18:42:17Z</time>
      </trkpt>
      <trkpt lat="48.98273" lon="2.04964">
        <ele>113</ele>
        <time>2020-07-03T18:42:46Z</time>
      </trkpt>
      <trkpt lat="48.98284" lon="2.04976">
        <ele>113</ele>
        <time>2020-07-03T18:43:23Z</time>
      </trkpt>
      <trkpt lat="48.98296" lon="2.04976">
        <ele>113</ele>
        <time>2020-07-03T18:45:22Z</time>
      </trkpt>
      <trkpt lat="48.98271" lon="2.04964">
        <ele>113</ele>
        <time>2020-07-03T19:11:31Z</time>
      </trkpt>
      <trkpt lat="48.98264" lon="2.04971">
        <ele>113</ele>
        <time>2020-07-03T19:11:45Z</time>
      </trkpt>
      <trkpt lat="48.98254" lon="2.04966">
        <ele>113</ele>
        <time>2020-07-03T19:12:04Z</time>
      </trkpt>
      <trkpt lat="48.98248" lon="2.04977">
        <ele>110</ele>
        <time>2020-07-03T19:12:14Z</time>
      </trkpt>
      <trkpt lat="48.98242" lon="2.04991">
        <ele>110</ele>
        <time>2020-07-03T19:12:41Z</time>
      </trkpt>
      <trkpt lat="48.98238" lon="2.05005">
        <ele>108</ele>
        <time>2020-07-03T19:12:52Z</time>
      </trkpt>
      <trkpt lat="48.98231" lon="2.05016">
        <ele>107</ele>
        <time>2020-07-03T19:13:01Z</time>
      </trkpt>
      <trkpt lat="48.98227" lon="2.05029">
        <ele>106</ele>
        <time>2020-07-03T19:13:15Z</time>
      </trkpt>
      <trkpt lat="48.98222" lon="2.05044">
        <ele>105</ele>
        <time>2020-07-03T19:13:25Z</time>
      </trkpt>
      <trkpt lat="48.98217" lon="2.05057">
        <ele>104</ele>
        <time>2020-07-03T19:13:34Z</time>
      </trkpt>
      <trkpt lat="48.98214" lon="2.05071">
        <ele>104</ele>
        <time>2020-07-03T19:13:45Z</time>
      </trkpt>
      <trkpt lat="48.98211" lon="2.05085">
        <ele>100</ele>
        <time>2020-07-03T19:13:54Z</time>
      </trkpt>
      <trkpt lat="48.98208" lon="2.051">
        <ele>99</ele>
        <time>2020-07-03T19:14:05Z</time>
      </trkpt>
      <trkpt lat="48.98206" lon="2.05114">
        <ele>99</ele>
        <time>2020-07-03T19:14:13Z</time>
      </trkpt>
      <trkpt lat="48.98205" lon="2.05129">
        <ele>98</ele>
        <time>2020-07-03T19:14:24Z</time>
      </trkpt>
      <trkpt lat="48.98204" lon="2.05143">
        <ele>98</ele>
        <time>2020-07-03T19:14:34Z</time>
      </trkpt>
      <trkpt lat="48.98204" lon="2.05157">
        <ele>97</ele>
        <time>2020-07-03T19:14:57Z</time>
      </trkpt>
      <trkpt lat="48.98202" lon="2.05171">
        <ele>95</ele>
        <time>2020-07-03T19:15:10Z</time>
      </trkpt>
      <trkpt lat="48.98198" lon="2.05191">
        <ele>94</ele>
        <time>2020-07-03T19:15:22Z</time>
      </trkpt>
      <trkpt lat="48.98194" lon="2.05204">
        <ele>94</ele>
        <time>2020-07-03T19:15:31Z</time>
      </trkpt>
      <trkpt lat="48.98191" lon="2.05219">
        <ele>94</ele>
        <time>2020-07-03T19:15:40Z</time>
      </trkpt>
      <trkpt lat="48.98188" lon="2.05234">
        <ele>93</ele>
        <time>2020-07-03T19:15:48Z</time>
      </trkpt>
      <trkpt lat="48.98186" lon="2.05248">
        <ele>93</ele>
        <time>2020-07-03T19:15:56Z</time>
      </trkpt>
      <trkpt lat="48.98183" lon="2.05264">
        <ele>91</ele>
        <time>2020-07-03T19:16:05Z</time>
      </trkpt>
      <trkpt lat="48.98189" lon="2.05276">
        <ele>90</ele>
        <time>2020-07-03T19:16:16Z</time>
      </trkpt>
      <trkpt lat="48.98197" lon="2.05282">
        <ele>90</ele>
        <time>2020-07-03T19:16:24Z</time>
      </trkpt>
      <trkpt lat="48.982" lon="2.05302">
        <ele>89</ele>
        <time>2020-07-03T19:16:59Z</time>
      </trkpt>
      <trkpt lat="48.982" lon="2.05317">
        <ele>89</ele>
        <time>2020-07-03T19:17:19Z</time>
      </trkpt>
      <trkpt lat="48.98197" lon="2.05333">
        <ele>85</ele>
        <time>2020-07-03T19:17:28Z</time>
      </trkpt>
      <trkpt lat="48.98192" lon="2.05348">
        <ele>84</ele>
        <time>2020-07-03T19:17:37Z</time>
      </trkpt>
      <trkpt lat="48.98189" lon="2.05365">
        <ele>84</ele>
        <time>2020-07-03T19:17:45Z</time>
      </trkpt>
      <trkpt lat="48.98186" lon="2.05381">
        <ele>83</ele>
        <time>2020-07-03T19:17:53Z</time>
      </trkpt>
      <trkpt lat="48.98181" lon="2.05395">
        <ele>82</ele>
        <time>2020-07-03T19:18:01Z</time>
      </trkpt>
      <trkpt lat="48.98178" lon="2.05409">
        <ele>81</ele>
        <time>2020-07-03T19:18:10Z</time>
      </trkpt>
      <trkpt lat="48.98175" lon="2.05424">
        <ele>79</ele>
        <time>2020-07-03T19:18:19Z</time>
      </trkpt>
      <trkpt lat="48.98172" lon="2.05439">
        <ele>78</ele>
        <time>2020-07-03T19:18:27Z</time>
      </trkpt>
      <trkpt lat="48.9817" lon="2.05454">
        <ele>77</ele>
        <time>2020-07-03T19:18:36Z</time>
      </trkpt>
      <trkpt lat="48.98177" lon="2.05468">
        <ele>77</ele>
        <time>2020-07-03T19:18:55Z</time>
      </trkpt>
      <trkpt lat="48.98188" lon="2.05472">
        <ele>77</ele>
        <time>2020-07-03T19:19:08Z</time>
      </trkpt>
      <trkpt lat="48.98198" lon="2.05478">
        <ele>77</ele>
        <time>2020-07-03T19:19:16Z</time>
      </trkpt>
      <trkpt lat="48.9821" lon="2.0548">
        <ele>77</ele>
        <time>2020-07-03T19:19:24Z</time>
      </trkpt>
      <trkpt lat="48.98221" lon="2.05479">
        <ele>77</ele>
        <time>2020-07-03T19:19:31Z</time>
      </trkpt>
      <trkpt lat="48.98231" lon="2.05483">
        <ele>76</ele>
        <time>2020-07-03T19:19:39Z</time>
      </trkpt>
      <trkpt lat="48.98241" lon="2.05488">
        <ele>76</ele>
        <time>2020-07-03T19:19:49Z</time>
      </trkpt>
      <trkpt lat="48.9825" lon="2.05492">
        <ele>76</ele>
        <time>2020-07-03T19:19:59Z</time>
      </trkpt>
      <trkpt lat="48.9826" lon="2.05493">
        <ele>76</ele>
        <time>2020-07-03T19:20:08Z</time>
      </trkpt>
      <trkpt lat="48.98271" lon="2.05495">
        <ele>77</ele>
        <time>2020-07-03T19:20:16Z</time>
      </trkpt>
      <trkpt lat="48.98282" lon="2.05496">
        <ele>77</ele>
        <time>2020-07-03T19:20:26Z</time>
      </trkpt>
      <trkpt lat="48.98291" lon="2.055">
        <ele>77</ele>
        <time>2020-07-03T19:20:36Z</time>
      </trkpt>
      <trkpt lat="48.98299" lon="2.05509">
        <ele>74</ele>
        <time>2020-07-03T19:20:42Z</time>
      </trkpt>
      <trkpt lat="48.98302" lon="2.05525">
        <ele>74</ele>
        <time>2020-07-03T19:20:52Z</time>
      </trkpt>
      <trkpt lat="48.98301" lon="2.05543">
        <ele>73</ele>
        <time>2020-07-03T19:21:00Z</time>
      </trkpt>
      <trkpt lat="48.98298" lon="2.0556">
        <ele>73</ele>
        <time>2020-07-03T19:21:08Z</time>
      </trkpt>
      <trkpt lat="48.98296" lon="2.05577">
        <ele>72</ele>
        <time>2020-07-03T19:21:16Z</time>
      </trkpt>
      <trkpt lat="48.98296" lon="2.05593">
        <ele>69</ele>
        <time>2020-07-03T19:21:24Z</time>
      </trkpt>
      <trkpt lat="48.98302" lon="2.05605">
        <ele>68</ele>
        <time>2020-07-03T19:21:32Z</time>
      </trkpt>
      <trkpt lat="48.98309" lon="2.05613">
        <ele>68</ele>
        <time>2020-07-03T19:21:41Z</time>
      </trkpt>
      <trkpt lat="48.98316" lon="2.05624">
        <ele>68</ele>
        <time>2020-07-03T19:21:52Z</time>
      </trkpt>
      <trkpt lat="48.98316" lon="2.05639">
        <ele>67</ele>
        <time>2020-07-03T19:22:02Z</time>
      </trkpt>
      <trkpt lat="48.9831" lon="2.05652">
        <ele>67</ele>
        <time>2020-07-03T19:22:12Z</time>
      </trkpt>
      <trkpt lat="48.98303" lon="2.05663">
        <ele>67</ele>
        <time>2020-07-03T19:22:20Z</time>
      </trkpt>
      <trkpt lat="48.98297" lon="2.05677">
        <ele>62</ele>
        <time>2020-07-03T19:22:28Z</time>
      </trkpt>
      <trkpt lat="48.9829" lon="2.05688">
        <ele>62</ele>
        <time>2020-07-03T19:22:36Z</time>
      </trkpt>
      <trkpt lat="48.98281" lon="2.05692">
        <ele>61</ele>
        <time>2020-07-03T19:22:47Z</time>
      </trkpt>
      <trkpt lat="48.98272" lon="2.05696">
        <ele>61</ele>
        <time>2020-07-03T19:22:56Z</time>
      </trkpt>
      <trkpt lat="48.98267" lon="2.05709">
        <ele>60</ele>
        <time>2020-07-03T19:23:07Z</time>
      </trkpt>
      <trkpt lat="48.9827" lon="2.05724">
        <ele>59</ele>
        <time>2020-07-03T19:23:18Z</time>
      </trkpt>
      <trkpt lat="48.98269" lon="2.0574">
        <ele>58</ele>
        <time>2020-07-03T19:23:27Z</time>
      </trkpt>
      <trkpt lat="48.98266" lon="2.05756">
        <ele>54</ele>
        <time>2020-07-03T19:23:34Z</time>
      </trkpt>
      <trkpt lat="48.98264" lon="2.05769">
        <ele>54</ele>
        <time>2020-07-03T19:23:40Z</time>
      </trkpt>
      <trkpt lat="48.98261" lon="2.05784">
        <ele>54</ele>
        <time>2020-07-03T19:23:48Z</time>
      </trkpt>
      <trkpt lat="48.98256" lon="2.05796">
        <ele>53</ele>
        <time>2020-07-03T19:23:57Z</time>
      </trkpt>
      <trkpt lat="48.9825" lon="2.05808">
        <ele>49</ele>
        <time>2020-07-03T19:24:07Z</time>
      </trkpt>
      <trkpt lat="48.98243" lon="2.05819">
        <ele>49</ele>
        <time>2020-07-03T19:24:15Z</time>
      </trkpt>
      <trkpt lat="48.98236" lon="2.05829">
        <ele>49</ele>
        <time>2020-07-03T19:24:23Z</time>
      </trkpt>
      <trkpt lat="48.98229" lon="2.05838">
        <ele>45</ele>
        <time>2020-07-03T19:24:31Z</time>
      </trkpt>
      <trkpt lat="48.98222" lon="2.0585">
        <ele>44</ele>
        <time>2020-07-03T19:24:40Z</time>
      </trkpt>
      <trkpt lat="48.98211" lon="2.05843">
        <ele>43</ele>
        <time>2020-07-03T19:25:02Z</time>
      </trkpt>
      <trkpt lat="48.98202" lon="2.0584">
        <ele>42</ele>
        <time>2020-07-03T19:25:12Z</time>
      </trkpt>
      <trkpt lat="48.98191" lon="2.05846">
        <ele>42</ele>
        <time>2020-07-03T19:25:21Z</time>
      </trkpt>
      <trkpt lat="48.98184" lon="2.05859">
        <ele>41</ele>
        <time>2020-07-03T19:25:28Z</time>
      </trkpt>
      <trkpt lat="48.98177" lon="2.05869">
        <ele>41</ele>
        <time>2020-07-03T19:25:36Z</time>
      </trkpt>
      <trkpt lat="48.98172" lon="2.05881">
        <ele>40</ele>
        <time>2020-07-03T19:25:45Z</time>
      </trkpt>
      <trkpt lat="48.98168" lon="2.05895">
        <ele>39</ele>
        <time>2020-07-03T19:25:54Z</time>
      </trkpt>
      <trkpt lat="48.98162" lon="2.05908">
        <ele>35</ele>
        <time>2020-07-03T19:26:03Z</time>
      </trkpt>
      <trkpt lat="48.98158" lon="2.05921">
        <ele>33</ele>
        <time>2020-07-03T19:26:12Z</time>
      </trkpt>
      <trkpt lat="48.98156" lon="2.05935">
        <ele>32</ele>
        <time>2020-07-03T19:26:23Z</time>
      </trkpt>
      <trkpt lat="48.98156" lon="2.0595">
        <ele>31</ele>
        <time>2020-07-03T19:26:32Z</time>
      </trkpt>
      <trkpt lat="48.98156" lon="2.05965">
        <ele>30</ele>
        <time>2020-07-03T19:26:48Z</time>
      </trkpt>
      <trkpt lat="48.9815" lon="2.05977">
        <ele>30</ele>
        <time>2020-07-03T19:26:57Z</time>
      </trkpt>
      <trkpt lat="48.98156" lon="2.0599">
        <ele>30</ele>
        <time>2020-07-03T19:27:07Z</time>
      </trkpt>
      <trkpt lat="48.98164" lon="2.05998">
        <ele>29</ele>
        <time>2020-07-03T19:27:14Z</time>
      </trkpt>
      <trkpt lat="48.9817" lon="2.06009">
        <ele>29</ele>
        <time>2020-07-03T19:27:25Z</time>
      </trkpt>
      <trkpt lat="48.98166" lon="2.06023">
        <ele>27</ele>
        <time>2020-07-03T19:27:37Z</time>
      </trkpt>
      <trkpt lat="48.98161" lon="2.06038">
        <ele>26</ele>
        <time>2020-07-03T19:27:45Z</time>
      </trkpt>
      <trkpt lat="48.98156" lon="2.06052">
        <ele>26</ele>
        <time>2020-07-03T19:27:52Z</time>
      </trkpt>
      <trkpt lat="48.9815" lon="2.06067">
        <ele>25</ele>
        <time>2020-07-03T19:27:59Z</time>
      </trkpt>
      <trkpt lat="48.98144" lon="2.06081">
        <ele>25</ele>
        <time>2020-07-03T19:28:05Z</time>
      </trkpt>
      <trkpt lat="48.9814" lon="2.06095">
        <ele>24</ele>
        <time>2020-07-03T19:28:12Z</time>
      </trkpt>
      <trkpt lat="48.98139" lon="2.06111">
        <ele>24</ele>
        <time>2020-07-03T19:28:23Z</time>
      </trkpt>
      <trkpt lat="48.98146" lon="2.06119">
        <ele>24</ele>
        <time>2020-07-03T19:28:32Z</time>
      </trkpt>
      <trkpt lat="48.98155" lon="2.06123">
        <ele>24</ele>
        <time>2020-07-03T19:28:50Z</time>
      </trkpt>
      <trkpt lat="48.98164" lon="2.0613">
        <ele>23</ele>
        <time>2020-07-03T19:29:01Z</time>
      </trkpt>
      <trkpt lat="48.98172" lon="2.06136">
        <ele>24</ele>
        <time>2020-07-03T19:29:09Z</time>
      </trkpt>
      <trkpt lat="48.9818" lon="2.06143">
        <ele>24</ele>
        <time>2020-07-03T19:29:17Z</time>
      </trkpt>
      <trkpt lat="48.98189" lon="2.06152">
        <ele>23</ele>
        <time>2020-07-03T19:29:27Z</time>
      </trkpt>
      <trkpt lat="48.98198" lon="2.06158">
        <ele>24</ele>
        <time>2020-07-03T19:29:35Z</time>
      </trkpt>
      <trkpt lat="48.98207" lon="2.06166">
        <ele>24</ele>
        <time>2020-07-03T19:29:45Z</time>
      </trkpt>
      <trkpt lat="48.98217" lon="2.06173">
        <ele>23</ele>
        <time>2020-07-03T19:29:53Z</time>
      </trkpt>
      <trkpt lat="48.98225" lon="2.0618">
        <ele>23</ele>
        <time>2020-07-03T19:30:01Z</time>
      </trkpt>
      <trkpt lat="48.98234" lon="2.06189">
        <ele>23</ele>
        <time>2020-07-03T19:30:11Z</time>
      </trkpt>
      <trkpt lat="48.98242" lon="2.06197">
        <ele>23</ele>
        <time>2020-07-03T19:30:19Z</time>
      </trkpt>
      <trkpt lat="48.98253" lon="2.06204">
        <ele>24</ele>
        <time>2020-07-03T19:30:27Z</time>
      </trkpt>
      <trkpt lat="48.9826" lon="2.06212">
        <ele>24</ele>
        <time>2020-07-03T19:30:38Z</time>
      </trkpt>
      <trkpt lat="48.9827" lon="2.0622">
        <ele>24</ele>
        <time>2020-07-03T19:30:44Z</time>
      </trkpt>
      <trkpt lat="48.98279" lon="2.06227">
        <ele>24</ele>
        <time>2020-07-03T19:30:51Z</time>
      </trkpt>
      <trkpt lat="48.98288" lon="2.06233">
        <ele>24</ele>
        <time>2020-07-03T19:31:00Z</time>
      </trkpt>
      <trkpt lat="48.98298" lon="2.06241">
        <ele>24</ele>
        <time>2020-07-03T19:31:08Z</time>
      </trkpt>
      <trkpt lat="48.98307" lon="2.06246">
        <ele>24</ele>
        <time>2020-07-03T19:31:16Z</time>
      </trkpt>
      <trkpt lat="48.98315" lon="2.06255">
        <ele>24</ele>
        <time>2020-07-03T19:31:24Z</time>
      </trkpt>
      <trkpt lat="48.98323" lon="2.06264">
        <ele>24</ele>
        <time>2020-07-03T19:31:31Z</time>
      </trkpt>
      <trkpt lat="48.98331" lon="2.06275">
        <ele>24</ele>
        <time>2020-07-03T19:31:41Z</time>
      </trkpt>
      <trkpt lat="48.9834" lon="2.06282">
        <ele>24</ele>
        <time>2020-07-03T19:31:51Z</time>
      </trkpt>
      <trkpt lat="48.98348" lon="2.06295">
        <ele>24</ele>
        <time>2020-07-03T19:31:59Z</time>
      </trkpt>
      <trkpt lat="48.98356" lon="2.06303">
        <ele>24</ele>
        <time>2020-07-03T19:32:06Z</time>
      </trkpt>
      <trkpt lat="48.98364" lon="2.06314">
        <ele>24</ele>
        <time>2020-07-03T19:32:15Z</time>
      </trkpt>
      <trkpt lat="48.98371" lon="2.06325">
        <ele>24</ele>
        <time>2020-07-03T19:32:21Z</time>
      </trkpt>
      <trkpt lat="48.98378" lon="2.06335">
        <ele>22</ele>
        <time>2020-07-03T19:32:31Z</time>
      </trkpt>
      <trkpt lat="48.98384" lon="2.06347">
        <ele>22</ele>
        <time>2020-07-03T19:32:40Z</time>
      </trkpt>
      <trkpt lat="48.98391" lon="2.06358">
        <ele>22</ele>
        <time>2020-07-03T19:32:48Z</time>
      </trkpt>
      <trkpt lat="48.98395" lon="2.06372">
        <ele>22</ele>
        <time>2020-07-03T19:32:56Z</time>
      </trkpt>
      <trkpt lat="48.98403" lon="2.0638">
        <ele>22</ele>
        <time>2020-07-03T19:33:03Z</time>
      </trkpt>
      <trkpt lat="48.98411" lon="2.0639">
        <ele>21</ele>
        <time>2020-07-03T19:33:11Z</time>
      </trkpt>
      <trkpt lat="48.98419" lon="2.06401">
        <ele>21</ele>
        <time>2020-07-03T19:33:19Z</time>
      </trkpt>
      <trkpt lat="48.98425" lon="2.06414">
        <ele>21</ele>
        <time>2020-07-03T19:33:28Z</time>
      </trkpt>
      <trkpt lat="48.98434" lon="2.06422">
        <ele>20</ele>
        <time>2020-07-03T19:33:36Z</time>
      </trkpt>
      <trkpt lat="48.98439" lon="2.06435">
        <ele>20</ele>
        <time>2020-07-03T19:33:46Z</time>
      </trkpt>
      <trkpt lat="48.98442" lon="2.0645">
        <ele>20</ele>
        <time>2020-07-03T19:33:53Z</time>
      </trkpt>
      <trkpt lat="48.9845" lon="2.06462">
        <ele>20</ele>
        <time>2020-07-03T19:34:02Z</time>
      </trkpt>
      <trkpt lat="48.98455" lon="2.06475">
        <ele>20</ele>
        <time>2020-07-03T19:34:09Z</time>
      </trkpt>
      <trkpt lat="48.9846" lon="2.06489">
        <ele>20</ele>
        <time>2020-07-03T19:34:17Z</time>
      </trkpt>
      <trkpt lat="48.98466" lon="2.06502">
        <ele>20</ele>
        <time>2020-07-03T19:34:26Z</time>
      </trkpt>
      <trkpt lat="48.98469" lon="2.06517">
        <ele>20</ele>
        <time>2020-07-03T19:34:35Z</time>
      </trkpt>
      <trkpt lat="48.98475" lon="2.06529">
        <ele>20</ele>
        <time>2020-07-03T19:34:43Z</time>
      </trkpt>
      <trkpt lat="48.9848" lon="2.06543">
        <ele>19</ele>
        <time>2020-07-03T19:34:51Z</time>
      </trkpt>
      <trkpt lat="48.98483" lon="2.06557">
        <ele>19</ele>
        <time>2020-07-03T19:35:00Z</time>
      </trkpt>
      <trkpt lat="48.9849" lon="2.0657">
        <ele>19</ele>
        <time>2020-07-03T19:35:07Z</time>
      </trkpt>
      <trkpt lat="48.98494" lon="2.06584">
        <ele>19</ele>
        <time>2020-07-03T19:35:17Z</time>
      </trkpt>
      <trkpt lat="48.98499" lon="2.06598">
        <ele>19</ele>
        <time>2020-07-03T19:35:27Z</time>
      </trkpt>
      <trkpt lat="48.98504" lon="2.06611">
        <ele>20</ele>
        <time>2020-07-03T19:35:34Z</time>
      </trkpt>
      <trkpt lat="48.98509" lon="2.06624">
        <ele>21</ele>
        <time>2020-07-03T19:35:41Z</time>
      </trkpt>
      <trkpt lat="48.98511" lon="2.06637">
        <ele>21</ele>
        <time>2020-07-03T19:35:50Z</time>
      </trkpt>
      <trkpt lat="48.98516" lon="2.06653">
        <ele>21</ele>
        <time>2020-07-03T19:35:58Z</time>
      </trkpt>
      <trkpt lat="48.9852" lon="2.06667">
        <ele>21</ele>
        <time>2020-07-03T19:36:06Z</time>
      </trkpt>
      <trkpt lat="48.98526" lon="2.06678">
        <ele>22</ele>
        <time>2020-07-03T19:36:14Z</time>
      </trkpt>
      <trkpt lat="48.9853" lon="2.06693">
        <ele>22</ele>
        <time>2020-07-03T19:36:22Z</time>
      </trkpt>
      <trkpt lat="48.98534" lon="2.06705">
        <ele>22</ele>
        <time>2020-07-03T19:36:30Z</time>
      </trkpt>
      <trkpt lat="48.98541" lon="2.06718">
        <ele>22</ele>
        <time>2020-07-03T19:36:41Z</time>
      </trkpt>
      <trkpt lat="48.98547" lon="2.06729">
        <ele>22</ele>
        <time>2020-07-03T19:36:49Z</time>
      </trkpt>
      <trkpt lat="48.98552" lon="2.06744">
        <ele>22</ele>
        <time>2020-07-03T19:36:57Z</time>
      </trkpt>
      <trkpt lat="48.98558" lon="2.06758">
        <ele>21</ele>
        <time>2020-07-03T19:37:04Z</time>
      </trkpt>
      <trkpt lat="48.98564" lon="2.06771">
        <ele>21</ele>
        <time>2020-07-03T19:37:11Z</time>
      </trkpt>
      <trkpt lat="48.98569" lon="2.06782">
        <ele>21</ele>
        <time>2020-07-03T19:37:19Z</time>
      </trkpt>
      <trkpt lat="48.98574" lon="2.06797">
        <ele>21</ele>
        <time>2020-07-03T19:37:27Z</time>
      </trkpt>
      <trkpt lat="48.98579" lon="2.0681">
        <ele>20</ele>
        <time>2020-07-03T19:37:36Z</time>
      </trkpt>
      <trkpt lat="48.98583" lon="2.06825">
        <ele>20</ele>
        <time>2020-07-03T19:37:46Z</time>
      </trkpt>
      <trkpt lat="48.98589" lon="2.06837">
        <ele>21</ele>
        <time>2020-07-03T19:37:54Z</time>
      </trkpt>
      <trkpt lat="48.98595" lon="2.0685">
        <ele>21</ele>
        <time>2020-07-03T19:38:01Z</time>
      </trkpt>
      <trkpt lat="48.98602" lon="2.06862">
        <ele>22</ele>
        <time>2020-07-03T19:38:08Z</time>
      </trkpt>
      <trkpt lat="48.98607" lon="2.06874">
        <ele>22</ele>
        <time>2020-07-03T19:38:16Z</time>
      </trkpt>
      <trkpt lat="48.98613" lon="2.06887">
        <ele>22</ele>
        <time>2020-07-03T19:38:23Z</time>
      </trkpt>
      <trkpt lat="48.98619" lon="2.06897">
        <ele>22</ele>
        <time>2020-07-03T19:38:32Z</time>
      </trkpt>
      <trkpt lat="48.98623" lon="2.0691">
        <ele>22</ele>
        <time>2020-07-03T19:38:40Z</time>
      </trkpt>
      <trkpt lat="48.98628" lon="2.06923">
        <ele>22</ele>
        <time>2020-07-03T19:38:48Z</time>
      </trkpt>
      <trkpt lat="48.98638" lon="2.0693">
        <ele>22</ele>
        <time>2020-07-03T19:38:57Z</time>
      </trkpt>
      <trkpt lat="48.98644" lon="2.0694">
        <ele>22</ele>
        <time>2020-07-03T19:39:06Z</time>
      </trkpt>
      <trkpt lat="48.98654" lon="2.06947">
        <ele>22</ele>
        <time>2020-07-03T19:39:13Z</time>
      </trkpt>
      <trkpt lat="48.98656" lon="2.06962">
        <ele>21</ele>
        <time>2020-07-03T19:39:21Z</time>
      </trkpt>
      <trkpt lat="48.98663" lon="2.06973">
        <ele>21</ele>
        <time>2020-07-03T19:39:27Z</time>
      </trkpt>
      <trkpt lat="48.9867" lon="2.06983">
        <ele>21</ele>
        <time>2020-07-03T19:39:34Z</time>
      </trkpt>
      <trkpt lat="48.98678" lon="2.06991">
        <ele>21</ele>
        <time>2020-07-03T19:39:42Z</time>
      </trkpt>
      <trkpt lat="48.98684" lon="2.07004">
        <ele>20</ele>
        <time>2020-07-03T19:39:48Z</time>
      </trkpt>
      <trkpt lat="48.9869" lon="2.07015">
        <ele>20</ele>
        <time>2020-07-03T19:39:56Z</time>
      </trkpt>
      <trkpt lat="48.98698" lon="2.07022">
        <ele>21</ele>
        <time>2020-07-03T19:40:04Z</time>
      </trkpt>
      <trkpt lat="48.98707" lon="2.07031">
        <ele>21</ele>
        <time>2020-07-03T19:40:12Z</time>
      </trkpt>
      <trkpt lat="48.98717" lon="2.07039">
        <ele>21</ele>
        <time>2020-07-03T19:40:21Z</time>
      </trkpt>
      <trkpt lat="48.98726" lon="2.07044">
        <ele>21</ele>
        <time>2020-07-03T19:40:29Z</time>
      </trkpt>
      <trkpt lat="48.98736" lon="2.0705">
        <ele>22</ele>
        <time>2020-07-03T19:40:35Z</time>
      </trkpt>
      <trkpt lat="48.98746" lon="2.07056">
        <ele>22</ele>
        <time>2020-07-03T19:40:44Z</time>
      </trkpt>
      <trkpt lat="48.98754" lon="2.07063">
        <ele>22</ele>
        <time>2020-07-03T19:40:54Z</time>
      </trkpt>
      <trkpt lat="48.98764" lon="2.07067">
        <ele>22</ele>
        <time>2020-07-03T19:41:02Z</time>
      </trkpt>
      <trkpt lat="48.98774" lon="2.07071">
        <ele>22</ele>
        <time>2020-07-03T19:41:09Z</time>
      </trkpt>
      <trkpt lat="48.98783" lon="2.07076">
        <ele>22</ele>
        <time>2020-07-03T19:41:18Z</time>
      </trkpt>
      <trkpt lat="48.98794" lon="2.0708">
        <ele>22</ele>
        <time>2020-07-03T19:41:26Z</time>
      </trkpt>
      <trkpt lat="48.98804" lon="2.07086">
        <ele>21</ele>
        <time>2020-07-03T19:41:35Z</time>
      </trkpt>
      <trkpt lat="48.98814" lon="2.07083">
        <ele>22</ele>
        <time>2020-07-03T19:41:42Z</time>
      </trkpt>
      <trkpt lat="48.98823" lon="2.07085">
        <ele>21</ele>
        <time>2020-07-03T19:41:50Z</time>
      </trkpt>
      <trkpt lat="48.98833" lon="2.07086">
        <ele>21</ele>
        <time>2020-07-03T19:41:58Z</time>
      </trkpt>
      <trkpt lat="48.98843" lon="2.07088">
        <ele>21</ele>
        <time>2020-07-03T19:42:04Z</time>
      </trkpt>
      <trkpt lat="48.98854" lon="2.07089">
        <ele>21</ele>
        <time>2020-07-03T19:42:15Z</time>
      </trkpt>
      <trkpt lat="48.98864" lon="2.07091">
        <ele>21</ele>
        <time>2020-07-03T19:42:25Z</time>
      </trkpt>
      <trkpt lat="48.98875" lon="2.07091">
        <ele>21</ele>
        <time>2020-07-03T19:42:32Z</time>
      </trkpt>
      <trkpt lat="48.98887" lon="2.07093">
        <ele>21</ele>
        <time>2020-07-03T19:42:39Z</time>
      </trkpt>
      <trkpt lat="48.98897" lon="2.07097">
        <ele>21</ele>
        <time>2020-07-03T19:42:47Z</time>
      </trkpt>
      <trkpt lat="48.98906" lon="2.071">
        <ele>21</ele>
        <time>2020-07-03T19:42:57Z</time>
      </trkpt>
      <trkpt lat="48.98916" lon="2.07101">
        <ele>21</ele>
        <time>2020-07-03T19:43:08Z</time>
      </trkpt>
      <trkpt lat="48.98926" lon="2.071">
        <ele>20</ele>
        <time>2020-07-03T19:43:16Z</time>
      </trkpt>
      <trkpt lat="48.98935" lon="2.071">
        <ele>20</ele>
        <time>2020-07-03T19:43:23Z</time>
      </trkpt>
      <trkpt lat="48.98941" lon="2.07089">
        <ele>20</ele>
        <time>2020-07-03T19:43:35Z</time>
      </trkpt>
      <trkpt lat="48.98943" lon="2.07072">
        <ele>22</ele>
        <time>2020-07-03T19:43:45Z</time>
      </trkpt>
      <trkpt lat="48.98946" lon="2.07057">
        <ele>22</ele>
        <time>2020-07-03T19:43:55Z</time>
      </trkpt>
      <trkpt lat="48.98941" lon="2.07069">
        <ele>22</ele>
        <time>2020-07-03T19:44:10Z</time>
      </trkpt>
      <trkpt lat="48.98938" lon="2.07084">
        <ele>20</ele>
        <time>2020-07-03T19:44:20Z</time>
      </trkpt>
      <trkpt lat="48.98934" lon="2.07097">
        <ele>20</ele>
        <time>2020-07-03T19:44:28Z</time>
      </trkpt>
      <trkpt lat="48.98929" lon="2.0711">
        <ele>20</ele>
        <time>2020-07-03T19:44:36Z</time>
      </trkpt>
      <trkpt lat="48.98924" lon="2.07124">
        <ele>20</ele>
        <time>2020-07-03T19:44:44Z</time>
      </trkpt>
      <trkpt lat="48.98918" lon="2.07137">
        <ele>20</ele>
        <time>2020-07-03T19:44:52Z</time>
      </trkpt>
      <trkpt lat="48.98912" lon="2.07149">
        <ele>20</ele>
        <time>2020-07-03T19:45:00Z</time>
      </trkpt>
      <trkpt lat="48.98908" lon="2.07162">
        <ele>20</ele>
        <time>2020-07-03T19:45:08Z</time>
      </trkpt>
      <trkpt lat="48.98903" lon="2.07176">
        <ele>20</ele>
        <time>2020-07-03T19:45:16Z</time>
      </trkpt>
      <trkpt lat="48.98899" lon="2.0719">
        <ele>21</ele>
        <time>2020-07-03T19:45:24Z</time>
      </trkpt>
      <trkpt lat="48.98894" lon="2.07204">
        <ele>21</ele>
        <time>2020-07-03T19:45:32Z</time>
      </trkpt>
      <trkpt lat="48.98889" lon="2.07217">
        <ele>21</ele>
        <time>2020-07-03T19:45:40Z</time>
      </trkpt>
      <trkpt lat="48.98884" lon="2.0723">
        <ele>21</ele>
        <time>2020-07-03T19:45:48Z</time>
      </trkpt>
      <trkpt lat="48.98879" lon="2.07243">
        <ele>22</ele>
        <time>2020-07-03T19:45:56Z</time>
      </trkpt>
      <trkpt lat="48.98874" lon="2.07258">
        <ele>23</ele>
        <time>2020-07-03T19:46:04Z</time>
      </trkpt>
      <trkpt lat="48.98871" lon="2.07272">
        <ele>23</ele>
        <time>2020-07-03T19:46:12Z</time>
      </trkpt>
      <trkpt lat="48.98868" lon="2.07286">
        <ele>23</ele>
        <time>2020-07-03T19:46:21Z</time>
      </trkpt>
      <trkpt lat="48.98862" lon="2.07299">
        <ele>23</ele>
        <time>2020-07-03T19:46:30Z</time>
      </trkpt>
      <trkpt lat="48.98857" lon="2.0731">
        <ele>23</ele>
        <time>2020-07-03T19:46:38Z</time>
      </trkpt>
      <trkpt lat="48.9886" lon="2.07297">
        <ele>23</ele>
        <time>2020-07-03T19:47:03Z</time>
      </trkpt>
      <trkpt lat="48.98865" lon="2.07283">
        <ele>23</ele>
        <time>2020-07-03T19:47:10Z</time>
      </trkpt>
      <trkpt lat="48.98869" lon="2.07269">
        <ele>23</ele>
        <time>2020-07-03T19:47:17Z</time>
      </trkpt>
      <trkpt lat="48.9886" lon="2.07255">
        <ele>23</ele>
        <time>2020-07-03T19:47:35Z</time>
      </trkpt>
      <trkpt lat="48.9885" lon="2.07248">
        <ele>22</ele>
        <time>2020-07-03T19:47:41Z</time>
      </trkpt>
      <trkpt lat="48.98839" lon="2.07245">
        <ele>23</ele>
        <time>2020-07-03T19:47:47Z</time>
      </trkpt>
      <trkpt lat="48.98829" lon="2.07243">
        <ele>23</ele>
        <time>2020-07-03T19:47:55Z</time>
      </trkpt>
      <trkpt lat="48.98819" lon="2.07239">
        <ele>22</ele>
        <time>2020-07-03T19:48:03Z</time>
      </trkpt>
      <trkpt lat="48.9881" lon="2.07232">
        <ele>22</ele>
        <time>2020-07-03T19:48:09Z</time>
      </trkpt>
      <trkpt lat="48.988" lon="2.07227">
        <ele>22</ele>
        <time>2020-07-03T19:48:17Z</time>
      </trkpt>
      <trkpt lat="48.98789" lon="2.07222">
        <ele>21</ele>
        <time>2020-07-03T19:48:26Z</time>
      </trkpt>
      <trkpt lat="48.98779" lon="2.07215">
        <ele>21</ele>
        <time>2020-07-03T19:48:34Z</time>
      </trkpt>
      <trkpt lat="48.98769" lon="2.0721">
        <ele>21</ele>
        <time>2020-07-03T19:48:44Z</time>
      </trkpt>
      <trkpt lat="48.98759" lon="2.0721">
        <ele>21</ele>
        <time>2020-07-03T19:48:54Z</time>
      </trkpt>
      <trkpt lat="48.9875" lon="2.07215">
        <ele>21</ele>
        <time>2020-07-03T19:49:03Z</time>
      </trkpt>
      <trkpt lat="48.98745" lon="2.07228">
        <ele>21</ele>
        <time>2020-07-03T19:49:13Z</time>
      </trkpt>
      <trkpt lat="48.98745" lon="2.07242">
        <ele>21</ele>
        <time>2020-07-03T19:49:40Z</time>
      </trkpt>
      <trkpt lat="48.98743" lon="2.07257">
        <ele>22</ele>
        <time>2020-07-03T19:49:48Z</time>
      </trkpt>
      <trkpt lat="48.98744" lon="2.07274">
        <ele>21</ele>
        <time>2020-07-03T19:49:56Z</time>
      </trkpt>
      <trkpt lat="48.98746" lon="2.07288">
        <ele>21</ele>
        <time>2020-07-03T19:50:04Z</time>
      </trkpt>
      <trkpt lat="48.98748" lon="2.07304">
        <ele>21</ele>
        <time>2020-07-03T19:50:12Z</time>
      </trkpt>
      <trkpt lat="48.98749" lon="2.0732">
        <ele>21</ele>
        <time>2020-07-03T19:50:20Z</time>
      </trkpt>
      <trkpt lat="48.98751" lon="2.07335">
        <ele>22</ele>
        <time>2020-07-03T19:50:29Z</time>
      </trkpt>
      <trkpt lat="48.98752" lon="2.07349">
        <ele>22</ele>
        <time>2020-07-03T19:50:37Z</time>
      </trkpt>
      <trkpt lat="48.98755" lon="2.07365">
        <ele>23</ele>
        <time>2020-07-03T19:50:45Z</time>
      </trkpt>
      <trkpt lat="48.98758" lon="2.07382">
        <ele>23</ele>
        <time>2020-07-03T19:50:53Z</time>
      </trkpt>
      <trkpt lat="48.98761" lon="2.07397">
        <ele>23</ele>
        <time>2020-07-03T19:51:01Z</time>
      </trkpt>
      <trkpt lat="48.98761" lon="2.07413">
        <ele>22</ele>
        <time>2020-07-03T19:51:09Z</time>
      </trkpt>
      <trkpt lat="48.98764" lon="2.07428">
        <ele>23</ele>
        <time>2020-07-03T19:51:17Z</time>
      </trkpt>
      <trkpt lat="48.98766" lon="2.07443">
        <ele>24</ele>
        <time>2020-07-03T19:51:25Z</time>
      </trkpt>
      <trkpt lat="48.98768" lon="2.07459">
        <ele>24</ele>
        <time>2020-07-03T19:51:35Z</time>
      </trkpt>
      <trkpt lat="48.98772" lon="2.07473">
        <ele>24</ele>
        <time>2020-07-03T19:51:43Z</time>
      </trkpt>
      <trkpt lat="48.98777" lon="2.07487">
        <ele>24</ele>
        <time>2020-07-03T19:51:51Z</time>
      </trkpt>
      <trkpt lat="48.98781" lon="2.075">
        <ele>24</ele>
        <time>2020-07-03T19:51:59Z</time>
      </trkpt>
      <trkpt lat="48.98786" lon="2.07514">
        <ele>23</ele>
        <time>2020-07-03T19:52:07Z</time>
      </trkpt>
      <trkpt lat="48.9879" lon="2.07527">
        <ele>23</ele>
        <time>2020-07-03T19:52:15Z</time>
      </trkpt>
    </trkseg>
  </trk>
</gpx>